Time,TemperatureF,DewpointF,PressureIn,WindDirection,WindDirectionDegrees,WindSpeedMPH,WindSpeedGustMPH,Humidity,HourlyPrecipIn,Conditions,Clouds,dailyrainin,SoftwareType,DateUTC
2013-06-28 00:00:00,67.2,65.2,29.65,SW,221,0.0,0.0,93,0.00,,,0.00,VWS V14.01,2013-06-28 04:00:00,
2013-06-28 00:01:00,67.2,65.3,29.65,SW,221,0.0,0.0,93,0.00,,,0.00,VWS V14.01,2013-06-28 04:01:00,
2013-06-28 00:03:00,67.6,65.7,29.65,SW,221,0.0,0.0,94,0.00,,,0.00,VWS V14.01,2013-06-28 04:03:00,
2013-06-28 00:06:00,67.7,65.7,29.65,SW,221,0.0,0.0,93,0.00,,,0.00,VWS V14.01,2013-06-28 04:06:00,
2013-06-28 00:07:00,66.5,64.4,29.65,West,279,1.3,1.3,93,0.00,,,0.00,VWS V14.01,2013-06-28 04:07:00,
2013-06-28 00:08:00,65.9,63.7,29.65,WNW,295,2.7,3.4,93,0.00,,,0.00,VWS V14.01,2013-06-28 04:08:00,
2013-06-28 00:09:00,66.1,64.0,29.65,NW,306,2.7,3.4,93,0.00,,,0.00,VWS V14.01,2013-06-28 04:09:00,
2013-06-28 00:11:00,66.4,64.9,29.65,NW,325,0.0,3.4,95,0.00,,,0.00,VWS V14.01,2013-06-28 04:11:00,
2013-06-28 00:13:00,66.5,65.2,29.65,NW,325,0.0,3.4,96,0.00,,,0.00,VWS V14.01,2013-06-28 04:13:00,
2013-06-28 00:14:00,66.7,65.5,29.65,NW,325,0.0,3.4,96,0.00,,,0.00,VWS V14.01,2013-06-28 04:14:00,
2013-06-28 00:16:00,66.9,65.8,29.65,NNW,343,0.0,3.4,96,0.00,,,0.00,VWS V14.01,2013-06-28 04:16:00,
2013-06-28 00:17:00,66.7,65.6,29.65,NNW,343,0.0,3.4,96,0.00,,,0.00,VWS V14.01,2013-06-28 04:17:00,
2013-06-28 00:18:00,66.4,65.3,29.66,NNW,343,0.0,3.4,96,0.00,,,0.00,VWS V14.01,2013-06-28 04:18:00,
2013-06-28 00:19:00,66.3,65.3,29.65,NNW,343,0.0,3.4,96,0.00,,,0.00,VWS V14.01,2013-06-28 04:19:00,
2013-06-28 00:20:00,66.6,65.7,29.65,NNW,343,0.0,3.4,97,0.00,,,0.00,VWS V14.01,2013-06-28 04:20:00,
2013-06-28 00:22:00,66.6,65.7,29.65,NNW,343,0.0,3.4,97,0.00,,,0.00,VWS V14.01,2013-06-28 04:22:00,
2013-06-28 00:23:00,66.9,66.1,29.65,NNW,343,0.0,3.4,97,0.00,,,0.00,VWS V14.01,2013-06-28 04:23:00,
2013-06-28 00:26:00,66.3,65.6,29.65,North,10,0.0,3.4,97,0.00,,,0.00,VWS V14.01,2013-06-28 04:26:00,
2013-06-28 00:27:00,66.3,65.5,29.65,North,10,0.0,3.4,97,0.00,,,0.00,VWS V14.01,2013-06-28 04:27:00,
2013-06-28 00:28:00,66.3,65.5,29.65,North,10,0.0,3.4,97,0.00,,,0.00,VWS V14.01,2013-06-28 04:28:00,
2013-06-28 00:31:00,65.8,65.1,29.65,North,10,0.0,3.4,97,0.00,,,0.00,VWS V14.01,2013-06-28 04:31:00,
2013-06-28 00:32:00,65.8,65.1,29.65,West,269,0.0,3.4,97,0.00,,,0.00,VWS V14.01,2013-06-28 04:32:00,
2013-06-28 00:33:00,66.0,65.3,29.65,West,269,0.0,3.4,98,0.00,,,0.00,VWS V14.01,2013-06-28 04:33:00,
2013-06-28 00:35:00,66.1,65.4,29.65,West,269,0.0,3.4,98,0.00,,,0.00,VWS V14.01,2013-06-28 04:35:00,
2013-06-28 00:36:00,66.1,65.5,29.65,West,269,0.0,3.4,98,0.00,,,0.00,VWS V14.01,2013-06-28 04:36:00,
2013-06-28 00:38:00,66.4,66.0,29.65,West,269,0.0,3.4,99,0.00,,,0.00,VWS V14.01,2013-06-28 04:38:00,
2013-06-28 00:39:00,66.4,66.0,29.65,West,269,0.0,3.4,99,0.00,,,0.00,VWS V14.01,2013-06-28 04:39:00,
2013-06-28 00:41:00,66.1,65.8,29.65,West,269,0.0,3.4,99,0.00,,,0.00,VWS V14.01,2013-06-28 04:41:00,
2013-06-28 00:43:00,66.1,65.8,29.65,West,269,0.0,3.4,99,0.00,,,0.00,VWS V14.01,2013-06-28 04:43:00,
2013-06-28 00:44:00,66.1,65.8,29.65,West,269,0.0,3.4,99,0.00,,,0.00,VWS V14.01,2013-06-28 04:44:00,
2013-06-28 00:46:00,65.7,65.4,29.65,West,269,0.0,3.4,99,0.00,,,0.04,VWS V14.01,2013-06-28 04:46:00,
2013-06-28 00:47:00,65.7,65.4,29.65,West,269,0.0,3.4,99,0.00,,,0.00,VWS V14.01,2013-06-28 04:47:00,
2013-06-28 00:50:00,65.7,65.5,29.65,West,269,0.0,3.4,99,0.00,,,0.00,VWS V14.01,2013-06-28 04:50:00,
2013-06-28 00:51:00,65.7,65.5,29.65,West,269,2.0,3.4,100,0.00,,,0.00,VWS V14.01,2013-06-28 04:51:00,
2013-06-28 00:52:00,65.7,65.7,29.65,West,269,0.0,3.4,100,0.00,,,0.00,VWS V14.01,2013-06-28 04:52:00,
2013-06-28 00:57:00,64.0,63.6,29.64,West,269,0.0,3.4,99,0.00,,,0.00,VWS V14.01,2013-06-28 04:57:00,
2013-06-28 00:58:00,64.5,64.2,29.64,West,269,0.0,3.4,99,0.00,,,0.00,VWS V14.01,2013-06-28 04:58:00,
2013-06-28 00:59:00,65.0,64.8,29.65,West,270,2.2,3.4,100,0.00,,,0.00,VWS V14.01,2013-06-28 04:59:00,
2013-06-28 01:03:00,65.2,65.2,29.65,West,270,3.0,3.4,100,0.00,,,0.00,VWS V14.01,2013-06-28 05:03:00,
2013-06-28 01:05:00,65.1,65.1,29.65,West,270,2.7,3.4,100,0.00,,,0.00,VWS V14.01,2013-06-28 05:05:00,
2013-06-28 01:08:00,65.0,65.0,29.64,WSW,256,3.2,3.9,100,0.00,,,0.00,VWS V14.01,2013-06-28 05:08:00,
2013-06-28 01:09:00,64.8,64.8,29.66,WSW,256,2.7,3.9,100,0.00,,,0.00,VWS V14.01,2013-06-28 05:09:00,
2013-06-28 01:10:00,65.0,65.0,29.65,WSW,256,2.7,3.9,100,0.00,,,0.00,VWS V14.01,2013-06-28 05:10:00,
2013-06-28 01:11:00,65.2,65.2,29.64,WSW,256,2.7,3.9,100,0.00,,,0.00,VWS V14.01,2013-06-28 05:11:00,
2013-06-28 01:15:00,65.0,65.0,29.64,West,274,2.2,3.9,100,0.00,,,0.00,VWS V14.01,2013-06-28 05:15:00,
2013-06-28 01:16:00,64.8,64.9,29.64,West,274,1.3,3.9,100,0.00,,,0.00,VWS V14.01,2013-06-28 05:16:00,
2013-06-28 01:17:00,64.7,64.7,29.64,West,274,1.3,3.9,100,0.00,,,0.00,VWS V14.01,2013-06-28 05:17:00,
2013-06-28 01:18:00,65.1,65.1,29.64,NW,312,2.2,3.9,100,0.00,,,0.00,VWS V14.01,2013-06-28 05:18:00,
2013-06-28 01:22:00,64.8,64.8,29.64,NW,324,3.4,4.0,100,0.00,,,0.00,VWS V14.01,2013-06-28 05:22:00,
2013-06-28 01:23:00,65.0,65.0,29.64,NW,324,3.5,4.0,100,0.00,,,0.00,VWS V14.01,2013-06-28 05:23:00,
2013-06-28 01:25:00,65.2,65.2,29.64,NW,320,4.0,4.0,100,0.00,,,0.00,VWS V14.01,2013-06-28 05:25:00,
2013-06-28 01:26:00,65.3,65.3,29.64,NW,325,3.5,4.0,100,0.00,,,0.00,VWS V14.01,2013-06-28 05:26:00,
2013-06-28 01:28:00,65.4,65.4,29.64,NNW,328,2.7,4.0,100,0.00,,,0.00,VWS V14.01,2013-06-28 05:28:00,
2013-06-28 01:30:00,65.4,65.4,29.64,NW,325,2.2,4.0,100,0.00,,,0.00,VWS V14.01,2013-06-28 05:30:00,
2013-06-28 01:31:00,65.3,65.3,29.64,NW,325,2.5,4.0,100,0.00,,,0.00,VWS V14.01,2013-06-28 05:31:00,
2013-06-28 01:32:00,65.4,65.4,29.64,NW,318,3.2,4.0,100,0.00,,,0.00,VWS V14.01,2013-06-28 05:32:00,
2013-06-28 01:33:00,65.2,65.2,29.64,NW,318,3.0,4.0,100,0.00,,,0.00,VWS V14.01,2013-06-28 05:33:00,
2013-06-28 01:34:00,65.2,65.2,29.64,NW,318,3.2,4.0,100,0.00,,,0.00,VWS V14.01,2013-06-28 05:34:00,
2013-06-28 01:35:00,65.3,65.3,29.64,NW,316,2.8,4.0,100,0.00,,,0.00,VWS V14.01,2013-06-28 05:35:00,
2013-06-28 01:37:00,65.2,65.2,29.64,WNW,295,3.4,4.0,100,0.00,,,0.00,VWS V14.01,2013-06-28 05:37:00,
2013-06-28 01:39:00,65.2,65.2,29.64,WNW,295,3.2,4.0,100,0.00,,,0.00,VWS V14.01,2013-06-28 05:39:00,
2013-06-28 01:40:00,65.1,65.1,29.64,WNW,295,2.7,4.0,100,0.00,,,0.00,VWS V14.01,2013-06-28 05:40:00,
2013-06-28 01:42:00,65.1,65.1,29.64,WNW,295,2.3,4.0,100,0.00,,,0.00,VWS V14.01,2013-06-28 05:42:00,
2013-06-28 01:44:00,65.3,65.3,29.64,WNW,295,1.3,4.0,100,0.00,,,0.00,VWS V14.01,2013-06-28 05:44:00,
2013-06-28 01:45:00,65.1,65.1,29.65,WNW,295,1.3,4.0,100,0.00,,,0.00,VWS V14.01,2013-06-28 05:45:00,
2013-06-28 01:46:00,65.2,65.2,29.64,WNW,295,1.0,4.0,100,0.00,,,0.00,VWS V14.01,2013-06-28 05:46:00,
2013-06-28 01:47:00,65.3,65.3,29.66,WNW,295,1.8,4.0,100,0.00,,,0.00,VWS V14.01,2013-06-28 05:47:00,
2013-06-28 01:50:00,65.4,65.4,29.64,WNW,287,2.5,4.0,100,0.00,,,0.00,VWS V14.01,2013-06-28 05:50:00,
2013-06-28 01:51:00,65.3,65.3,29.64,West,281,2.8,4.0,100,0.00,,,0.00,VWS V14.01,2013-06-28 05:51:00,
2013-06-28 01:52:00,65.4,65.5,29.64,West,281,3.4,4.0,100,0.00,,,0.00,VWS V14.01,2013-06-28 05:52:00,
2013-06-28 01:53:00,65.3,65.3,29.64,West,281,3.0,4.0,100,0.00,,,0.00,VWS V14.01,2013-06-28 05:53:00,
2013-06-28 01:55:00,65.6,65.6,29.64,WNW,283,3.2,4.0,100,0.00,,,0.00,VWS V14.01,2013-06-28 05:55:00,
2013-06-28 01:56:00,65.5,65.5,29.64,WNW,295,3.9,4.0,100,0.00,,,0.00,VWS V14.01,2013-06-28 05:56:00,
2013-06-28 01:58:00,65.9,65.9,29.64,WNW,296,3.9,4.0,100,0.00,,,0.00,VWS V14.01,2013-06-28 05:58:00,
2013-06-28 02:00:00,66.0,66.0,29.64,WNW,291,3.9,4.4,100,0.00,,,0.00,VWS V14.01,2013-06-28 06:00:00,
2013-06-28 02:01:00,65.8,65.8,29.64,WNW,291,3.5,4.4,100,0.00,,,0.00,VWS V14.01,2013-06-28 06:01:00,
2013-06-28 02:02:00,65.9,65.9,29.64,WNW,292,3.9,3.9,100,0.00,,,0.00,VWS V14.01,2013-06-28 06:02:00,
2013-06-28 02:03:00,65.9,65.9,29.64,West,278,4.0,4.0,100,0.00,,,0.00,VWS V14.01,2013-06-28 06:03:00,
2013-06-28 02:05:00,66.2,66.2,29.64,WNW,296,4.0,4.4,100,0.00,,,0.00,VWS V14.01,2013-06-28 06:05:00,
2013-06-28 02:07:00,66.2,66.2,29.64,NW,309,4.0,4.4,100,0.00,,,0.00,VWS V14.01,2013-06-28 06:07:00,
2013-06-28 02:08:00,66.0,66.0,29.64,NW,319,3.9,4.0,100,0.00,,,0.00,VWS V14.01,2013-06-28 06:08:00,
2013-06-28 02:11:00,65.8,65.8,29.64,WNW,283,3.2,3.2,100,0.00,,,0.00,VWS V14.01,2013-06-28 06:11:00,
2013-06-28 02:12:00,65.6,65.6,29.64,WNW,284,3.4,3.5,100,0.00,,,0.00,VWS V14.01,2013-06-28 06:12:00,
2013-06-28 02:14:00,65.8,65.8,29.64,West,275,3.7,4.0,100,0.00,,,0.00,VWS V14.01,2013-06-28 06:14:00,
2013-06-28 02:15:00,66.1,66.1,29.65,West,275,4.7,5.1,100,0.00,,,0.00,VWS V14.01,2013-06-28 06:15:00,
2013-06-28 02:18:00,66.1,66.1,29.64,West,278,5.2,5.4,100,0.00,,,0.00,VWS V14.01,2013-06-28 06:18:00,
2013-06-28 02:20:00,65.9,66.0,29.64,WNW,292,4.4,5.2,100,0.00,,,0.00,VWS V14.01,2013-06-28 06:20:00,
2013-06-28 02:21:00,65.8,65.8,29.64,WNW,292,4.9,5.1,100,0.00,,,0.00,VWS V14.01,2013-06-28 06:21:00,
2013-06-28 02:24:00,66.2,66.3,29.64,WNW,291,5.9,5.9,100,0.00,,,0.00,VWS V14.01,2013-06-28 06:24:00,
2013-06-28 02:25:00,66.3,66.3,29.64,WNW,291,5.9,5.9,100,0.00,,,0.00,VWS V14.01,2013-06-28 06:25:00,
2013-06-28 02:26:00,66.3,66.3,29.64,WNW,293,4.2,5.2,100,0.00,,,0.00,VWS V14.01,2013-06-28 06:26:00,
2013-06-28 02:27:00,66.3,66.3,29.64,WNW,293,4.2,5.2,100,0.00,,,0.00,VWS V14.01,2013-06-28 06:27:00,
2013-06-28 02:28:00,66.2,66.2,29.64,WNW,297,4.5,5.2,100,0.00,,,0.00,VWS V14.01,2013-06-28 06:28:00,
2013-06-28 02:29:00,66.2,66.2,29.64,WNW,297,5.2,5.2,100,0.00,,,0.00,VWS V14.01,2013-06-28 06:29:00,
2013-06-28 02:30:00,66.5,66.5,29.64,WNW,300,4.7,5.2,100,0.00,,,0.00,VWS V14.01,2013-06-28 06:30:00,
2013-06-28 02:32:00,66.7,66.8,29.64,WNW,294,5.9,5.9,100,0.00,,,0.00,VWS V14.01,2013-06-28 06:32:00,
2013-06-28 02:35:00,66.9,66.9,29.65,WNW,283,4.2,5.9,100,0.00,,,0.00,VWS V14.01,2013-06-28 06:35:00,
2013-06-28 02:37:00,66.7,66.7,29.64,WNW,291,4.9,4.9,100,0.00,,,0.00,VWS V14.01,2013-06-28 06:37:00,
2013-06-28 02:38:00,67.0,67.0,29.64,WNW,293,5.2,5.2,100,0.00,,,0.00,VWS V14.01,2013-06-28 06:38:00,
2013-06-28 02:41:00,66.9,66.9,29.64,West,276,4.4,4.5,100,0.00,,,0.00,VWS V14.01,2013-06-28 06:41:00,
2013-06-28 02:42:00,66.6,66.6,29.64,WNW,284,3.4,4.9,100,0.00,,,0.00,VWS V14.01,2013-06-28 06:42:00,
2013-06-28 02:43:00,66.9,66.9,29.64,WNW,289,4.0,4.0,100,0.00,,,0.00,VWS V14.01,2013-06-28 06:43:00,
2013-06-28 02:44:00,67.0,67.0,29.64,WNW,297,4.5,4.5,100,0.00,,,0.00,VWS V14.01,2013-06-28 06:44:00,
2013-06-28 02:45:00,67.2,67.2,29.64,West,277,4.7,4.7,100,0.00,,,0.00,VWS V14.01,2013-06-28 06:45:00,
2013-06-28 02:48:00,66.9,66.9,29.64,West,276,4.4,4.4,100,0.00,,,0.00,VWS V14.01,2013-06-28 06:48:00,
2013-06-28 02:49:00,67.0,66.1,29.64,WNW,302,4.5,4.5,97,0.00,,,0.00,VWS V14.01,2013-06-28 06:49:00,
2013-06-28 02:50:00,67.0,67.0,29.64,West,269,3.7,4.2,100,0.00,,,0.00,VWS V14.01,2013-06-28 06:50:00,
2013-06-28 02:54:00,67.1,67.1,29.64,West,276,5.1,5.1,100,0.00,,,0.00,VWS V14.01,2013-06-28 06:54:00,
2013-06-28 02:55:00,67.2,66.9,29.64,West,281,5.7,5.7,99,0.00,,,0.00,VWS V14.01,2013-06-28 06:55:00,
2013-06-28 02:56:00,67.4,67.4,29.64,WNW,300,5.2,5.7,100,0.00,,,0.00,VWS V14.01,2013-06-28 06:56:00,
2013-06-28 02:57:00,67.1,67.1,29.64,WNW,300,3.9,5.1,100,0.00,,,0.00,VWS V14.01,2013-06-28 06:57:00,
2013-06-28 03:00:00,67.0,67.0,29.64,NW,325,2.7,3.9,100,0.00,,,0.00,VWS V14.01,2013-06-28 07:00:00,
2013-06-28 03:01:00,67.9,67.9,29.63,NW,307,4.5,4.5,100,0.00,,,0.00,VWS V14.01,2013-06-28 07:01:00,
2013-06-28 03:03:00,68.3,68.3,29.64,NW,311,6.8,6.8,100,0.00,,,0.00,VWS V14.01,2013-06-28 07:03:00,
2013-06-28 03:06:00,67.9,67.9,29.64,WNW,299,4.5,6.8,100,0.00,,,0.00,VWS V14.01,2013-06-28 07:06:00,
2013-06-28 03:07:00,67.8,67.8,29.64,WNW,284,4.2,6.8,100,0.00,,,0.00,VWS V14.01,2013-06-28 07:07:00,
2013-06-28 03:09:00,68.1,68.1,29.64,WNW,294,6.1,6.8,100,0.00,,,0.00,VWS V14.01,2013-06-28 07:09:00,
2013-06-28 03:11:00,68.1,68.1,29.64,WNW,301,6.3,6.8,100,0.00,,,0.00,VWS V14.01,2013-06-28 07:11:00,
2013-06-28 03:12:00,68.0,68.0,29.64,WNW,293,5.4,6.8,100,0.00,,,0.00,VWS V14.01,2013-06-28 07:12:00,
2013-06-28 03:13:00,68.2,68.2,29.64,WNW,299,5.7,6.8,100,0.00,,,0.00,VWS V14.01,2013-06-28 07:13:00,
2013-06-28 03:15:00,68.4,68.4,29.64,WNW,287,6.4,6.8,100,0.00,,,0.00,VWS V14.01,2013-06-28 07:15:00,
2013-06-28 03:17:00,68.2,68.2,29.66,WNW,290,6.3,6.8,100,0.00,,,0.00,VWS V14.01,2013-06-28 07:17:00,
2013-06-28 03:18:00,68.1,68.1,29.64,WNW,297,5.4,6.8,100,0.00,,,0.00,VWS V14.01,2013-06-28 07:18:00,
2013-06-28 03:19:00,68.1,68.1,29.64,NW,306,5.1,6.8,100,0.00,,,0.00,VWS V14.01,2013-06-28 07:19:00,
2013-06-28 03:20:00,68.2,68.2,29.64,NW,311,5.6,6.8,100,0.00,,,0.00,VWS V14.01,2013-06-28 07:20:00,
2013-06-28 03:23:00,68.4,68.4,29.64,NW,316,6.9,7.1,100,0.00,,,0.00,VWS V14.01,2013-06-28 07:23:00,
2013-06-28 03:24:00,68.2,68.2,29.64,NW,312,4.2,7.1,100,0.00,,,0.00,VWS V14.01,2013-06-28 07:24:00,
2013-06-28 03:25:00,68.3,68.3,29.64,NW,314,4.5,7.1,100,0.00,,,0.00,VWS V14.01,2013-06-28 07:25:00,
2013-06-28 03:26:00,68.2,68.3,29.64,NW,316,6.1,7.1,100,0.00,,,0.00,VWS V14.01,2013-06-28 07:26:00,
2013-06-28 03:27:00,68.4,68.4,29.64,NW,308,6.1,7.1,100,0.00,,,0.00,VWS V14.01,2013-06-28 07:27:00,
2013-06-28 03:29:00,68.1,68.1,29.64,North,351,5.9,7.1,100,0.00,,,0.00,VWS V14.01,2013-06-28 07:29:00,
2013-06-28 03:30:00,68.5,68.5,29.64,NW,322,6.1,7.1,100,0.00,,,0.00,VWS V14.01,2013-06-28 07:30:00,
2013-06-28 03:31:00,68.3,68.3,29.64,NNW,327,5.9,7.1,100,0.00,,,0.00,VWS V14.01,2013-06-28 07:31:00,
2013-06-28 03:33:00,68.2,68.2,29.63,NW,317,6.3,7.1,100,0.00,,,0.00,VWS V14.01,2013-06-28 07:33:00,
2013-06-28 03:35:00,67.7,67.7,29.64,NW,304,4.4,7.1,100,0.00,,,0.00,VWS V14.01,2013-06-28 07:35:00,
2013-06-28 03:36:00,67.8,67.8,29.63,NW,307,4.7,7.1,100,0.00,,,0.00,VWS V14.01,2013-06-28 07:36:00,
2013-06-28 03:38:00,67.7,67.8,29.64,NW,316,4.2,7.1,100,0.00,,,0.00,VWS V14.01,2013-06-28 07:38:00,
2013-06-28 03:39:00,68.2,68.2,29.64,NNW,330,5.1,7.1,100,0.00,,,0.00,VWS V14.01,2013-06-28 07:39:00,
2013-06-28 03:41:00,68.2,68.2,29.63,NW,315,4.0,7.1,100,0.00,,,0.00,VWS V14.01,2013-06-28 07:41:00,
2013-06-28 03:44:00,68.6,68.6,29.64,NW,323,4.9,7.1,100,0.00,,,0.00,VWS V14.01,2013-06-28 07:44:00,
2013-06-28 03:45:00,68.6,68.6,29.63,NNW,338,5.2,7.1,100,0.00,,,0.00,VWS V14.01,2013-06-28 07:45:00,
2013-06-28 03:48:00,68.5,68.5,29.65,NW,305,4.9,7.1,100,0.00,,,0.00,VWS V14.01,2013-06-28 07:48:00,
2013-06-28 03:50:00,68.3,68.3,29.64,WNW,294,3.4,7.1,100,0.00,,,0.00,VWS V14.01,2013-06-28 07:50:00,
2013-06-28 03:52:00,68.6,68.6,29.62,WNW,296,3.0,7.1,100,0.00,,,0.00,VWS V14.01,2013-06-28 07:52:00,
2013-06-28 03:53:00,68.4,68.4,29.64,WNW,302,3.9,7.1,100,0.00,,,0.00,VWS V14.01,2013-06-28 07:53:00,
2013-06-28 03:56:00,68.1,68.1,29.64,NW,311,4.0,7.1,100,0.00,,,0.00,VWS V14.01,2013-06-28 07:56:00,
2013-06-28 03:57:00,68.1,68.1,29.63,NW,310,2.2,7.1,100,0.00,,,0.00,VWS V14.01,2013-06-28 07:57:00,
2013-06-28 03:58:00,68.0,68.0,29.64,WNW,290,4.0,7.1,100,0.00,,,0.00,VWS V14.01,2013-06-28 07:58:00,
2013-06-28 03:59:00,67.7,67.7,29.64,WNW,293,2.7,7.1,100,0.00,,,0.00,VWS V14.01,2013-06-28 07:59:00,
2013-06-28 04:02:00,68.1,68.1,29.63,WNW,299,4.7,4.7,100,0.00,,,0.00,VWS V14.01,2013-06-28 08:02:00,
2013-06-28 04:03:00,67.9,67.9,29.63,NW,306,3.2,4.7,100,0.00,,,0.00,VWS V14.01,2013-06-28 08:03:00,
2013-06-28 04:04:00,67.8,67.8,29.63,NW,312,2.3,4.7,100,0.00,,,0.00,VWS V14.01,2013-06-28 08:04:00,
2013-06-28 04:05:00,67.8,67.8,29.63,NW,313,1.1,4.7,100,0.00,,,0.00,VWS V14.01,2013-06-28 08:05:00,
2013-06-28 04:08:00,67.9,67.9,29.62,WNW,303,1.1,4.7,100,0.00,,,0.00,VWS V14.01,2013-06-28 08:08:00,
2013-06-28 04:09:00,67.8,67.8,29.63,WNW,290,2.2,4.7,100,0.00,,,0.00,VWS V14.01,2013-06-28 08:09:00,
2013-06-28 04:11:00,68.2,68.2,29.63,WNW,290,2.8,4.7,100,0.00,,,0.00,VWS V14.01,2013-06-28 08:11:00,
2013-06-28 04:14:00,68.1,68.1,29.63,West,279,2.5,4.7,100,0.00,,,0.00,VWS V14.01,2013-06-28 08:14:00,
2013-06-28 04:15:00,67.8,67.8,29.65,WNW,284,2.5,4.7,100,0.00,,,0.00,VWS V14.01,2013-06-28 08:15:00,
2013-06-28 04:16:00,67.7,67.7,29.62,West,276,2.3,4.7,100,0.00,,,0.00,VWS V14.01,2013-06-28 08:16:00,
2013-06-28 04:17:00,68.0,68.0,29.63,WNW,288,1.3,4.7,100,0.00,,,0.00,VWS V14.01,2013-06-28 08:17:00,
2013-06-28 04:19:00,68.1,68.1,29.63,WNW,284,3.0,4.7,100,0.00,,,0.00,VWS V14.01,2013-06-28 08:19:00,
2013-06-28 04:20:00,67.9,67.9,29.63,WNW,290,2.0,4.7,100,0.00,,,0.00,VWS V14.01,2013-06-28 08:20:00,
2013-06-28 04:21:00,67.7,67.8,29.62,WNW,296,0.0,4.7,100,0.00,,,0.00,VWS V14.01,2013-06-28 08:21:00,
2013-06-28 04:22:00,67.7,67.7,29.63,WNW,297,1.3,4.7,100,0.00,,,0.00,VWS V14.01,2013-06-28 08:22:00,
2013-06-28 04:24:00,67.8,67.8,29.63,NNW,336,1.1,4.7,100,0.00,,,0.00,VWS V14.01,2013-06-28 08:24:00,
2013-06-28 04:25:00,67.8,67.8,29.63,NNW,346,1.3,4.7,100,0.00,,,0.00,VWS V14.01,2013-06-28 08:25:00,
2013-06-28 04:27:00,68.0,68.0,29.63,NNW,332,0.0,4.7,100,0.00,,,0.00,VWS V14.01,2013-06-28 08:27:00,
2013-06-28 04:29:00,68.6,68.6,29.63,NW,323,3.2,4.7,100,0.00,,,0.00,VWS V14.01,2013-06-28 08:29:00,
2013-06-28 04:30:00,69.1,69.1,29.63,NW,322,3.9,4.7,100,0.00,,,0.00,VWS V14.01,2013-06-28 08:30:00,
2013-06-28 04:32:00,68.7,68.7,29.62,NNW,333,0.0,4.7,100,0.00,,,0.00,VWS V14.01,2013-06-28 08:32:00,
2013-06-28 04:33:00,68.7,68.7,29.62,NNW,333,0.0,4.7,100,0.00,,,0.00,VWS V14.01,2013-06-28 08:33:00,
2013-06-28 04:35:00,68.7,68.8,29.63,NW,311,0.0,4.7,100,0.00,,,0.00,VWS V14.01,2013-06-28 08:35:00,
2013-06-28 04:37:00,69.0,69.0,29.63,NW,319,2.8,4.7,100,0.00,,,0.00,VWS V14.01,2013-06-28 08:37:00,
2013-06-28 04:38:00,68.7,68.7,29.62,NW,312,2.3,4.7,100,0.00,,,0.00,VWS V14.01,2013-06-28 08:38:00,
2013-06-28 04:39:00,69.3,69.3,29.63,NNW,342,6.1,6.1,100,0.00,,,0.00,VWS V14.01,2013-06-28 08:39:00,
2013-06-28 04:40:00,69.2,69.2,29.63,NW,326,5.7,6.9,100,0.00,,,0.00,VWS V14.01,2013-06-28 08:40:00,
2013-06-28 04:44:00,69.1,69.1,29.63,NNW,335,3.5,6.9,100,0.00,,,0.00,VWS V14.01,2013-06-28 08:44:00,
2013-06-28 04:45:00,69.3,69.3,29.63,NW,323,4.5,6.9,100,0.00,,,0.00,VWS V14.01,2013-06-28 08:45:00,
2013-06-28 04:46:00,69.2,69.2,29.63,NNW,328,3.2,6.9,100,0.00,,,0.00,VWS V14.01,2013-06-28 08:46:00,
2013-06-28 04:50:00,69.0,68.2,29.63,NW,325,2.0,6.9,97,0.00,,,0.00,VWS V14.01,2013-06-28 08:50:00,
2013-06-28 04:51:00,69.2,69.2,29.63,NW,324,4.5,6.9,100,0.00,,,0.00,VWS V14.01,2013-06-28 08:51:00,
2013-06-28 04:52:00,69.0,69.0,29.63,NW,319,3.9,6.9,100,0.00,,,0.00,VWS V14.01,2013-06-28 08:52:00,
2013-06-28 04:55:00,68.9,69.0,29.63,NW,325,3.0,6.9,100,0.00,,,0.00,VWS V14.01,2013-06-28 08:55:00,
2013-06-28 04:57:00,69.2,69.2,29.63,NNW,332,3.7,6.9,100,0.00,,,0.00,VWS V14.01,2013-06-28 08:57:00,
2013-06-28 04:58:00,69.0,69.1,29.63,North,352,1.3,6.9,100,0.00,,,0.00,VWS V14.01,2013-06-28 08:58:00,
2013-06-28 04:59:00,69.1,69.1,29.64,NW,321,1.0,6.9,100,0.00,,,0.00,VWS V14.01,2013-06-28 08:59:00,
2013-06-28 05:00:00,69.2,69.2,29.63,NNW,333,4.7,7.8,100,0.00,,,0.00,VWS V14.01,2013-06-28 09:00:00,
2013-06-28 05:03:00,69.1,69.1,29.63,North,6,0.0,4.7,100,0.00,,,0.00,VWS V14.01,2013-06-28 09:03:00,
2013-06-28 05:04:00,69.5,69.5,29.63,NW,325,8.0,8.1,100,0.00,,,0.00,VWS V14.01,2013-06-28 09:04:00,
2013-06-28 05:06:00,69.1,69.2,29.62,NW,309,4.9,8.1,100,0.00,,,0.00,VWS V14.01,2013-06-28 09:06:00,
2013-06-28 05:07:00,69.3,69.3,29.63,NW,316,6.3,8.1,100,0.00,,,0.00,VWS V14.01,2013-06-28 09:07:00,
2013-06-28 05:09:00,69.2,69.1,29.63,NNW,346,5.9,9.3,100,0.00,,,0.00,VWS V14.01,2013-06-28 09:09:00,
2013-06-28 05:12:00,69.3,69.2,29.63,NNW,329,8.0,9.3,100,0.00,,,0.00,VWS V14.01,2013-06-28 09:12:00,
2013-06-28 05:13:00,69.3,69.1,29.63,NW,318,5.7,9.3,99,0.00,,,0.00,VWS V14.01,2013-06-28 09:13:00,
2013-06-28 05:14:00,69.1,68.9,29.63,NNW,340,5.7,9.3,100,0.00,,,0.00,VWS V14.01,2013-06-28 09:14:00,
2013-06-28 05:15:00,69.0,68.8,29.63,NW,320,4.5,9.3,99,0.00,,,0.00,VWS V14.01,2013-06-28 09:15:00,
2013-06-28 05:16:00,68.9,68.7,29.63,NW,323,5.4,9.3,99,0.00,,,0.00,VWS V14.01,2013-06-28 09:16:00,
2013-06-28 05:17:00,68.7,68.6,29.62,NW,314,5.4,9.3,99,0.00,,,0.00,VWS V14.01,2013-06-28 09:17:00,
2013-06-28 05:20:00,68.6,68.5,29.63,NW,305,4.0,9.3,100,0.00,,,0.00,VWS V14.01,2013-06-28 09:20:00,
2013-06-28 05:21:00,68.8,68.8,29.63,NNW,329,4.5,9.3,100,0.00,,,0.00,VWS V14.01,2013-06-28 09:21:00,
2013-06-28 05:23:00,68.7,68.7,29.63,NNW,330,4.2,9.3,100,0.00,,,0.00,VWS V14.01,2013-06-28 09:23:00,
2013-06-28 05:26:00,68.7,68.7,29.64,NW,325,2.7,9.3,100,0.00,,,0.00,VWS V14.01,2013-06-28 09:26:00,
2013-06-28 05:27:00,68.7,68.7,29.63,NNW,327,0.0,9.3,100,0.00,,,0.00,VWS V14.01,2013-06-28 09:27:00,
2013-06-28 05:28:00,68.5,68.5,29.63,NNW,345,0.0,9.3,100,0.00,,,0.00,VWS V14.01,2013-06-28 09:28:00,
2013-06-28 05:30:00,68.8,68.8,29.65,NNW,334,2.3,9.3,100,0.00,,,0.00,VWS V14.01,2013-06-28 09:30:00,
2013-06-28 05:31:00,68.4,68.4,29.63,NW,322,0.0,9.3,100,0.00,,,0.00,VWS V14.01,2013-06-28 09:31:00,
2013-06-28 05:32:00,68.8,68.8,29.64,NW,309,0.0,9.3,100,0.00,,,0.00,VWS V14.01,2013-06-28 09:32:00,
2013-06-28 05:33:00,69.0,69.0,29.65,NW,325,4.4,9.3,100,0.00,,,0.00,VWS V14.01,2013-06-28 09:33:00,
2013-06-28 05:35:00,68.3,68.3,29.63,NW,324,2.3,9.3,100,0.00,,,0.00,VWS V14.01,2013-06-28 09:35:00,
2013-06-28 05:36:00,68.2,68.2,29.63,NW,318,2.0,9.3,100,0.00,,,0.00,VWS V14.01,2013-06-28 09:36:00,
2013-06-28 05:37:00,68.6,68.6,29.64,NNW,342,7.1,9.3,100,0.00,,,0.00,VWS V14.01,2013-06-28 09:37:00,
2013-06-28 05:38:00,68.7,68.7,29.63,NW,310,5.6,9.3,100,0.00,,,0.00,VWS V14.01,2013-06-28 09:38:00,
2013-06-28 05:41:00,68.3,68.3,29.63,NW,310,3.0,9.3,100,0.00,,,0.00,VWS V14.01,2013-06-28 09:41:00,
2013-06-28 05:43:00,68.5,68.5,29.62,NW,325,4.4,9.3,100,0.00,,,0.00,VWS V14.01,2013-06-28 09:43:00,
2013-06-28 05:46:00,68.4,68.4,29.63,NW,310,4.2,9.3,100,0.00,,,0.00,VWS V14.01,2013-06-28 09:46:00,
2013-06-28 05:47:00,68.7,68.7,29.63,NW,312,6.6,9.3,100,0.00,,,0.00,VWS V14.01,2013-06-28 09:47:00,
2013-06-28 05:48:00,68.4,68.4,29.64,NNW,328,4.5,9.3,100,0.00,,,0.00,VWS V14.01,2013-06-28 09:48:00,
2013-06-28 05:49:00,68.4,68.4,29.63,WNW,295,6.4,9.3,100,0.00,,,0.00,VWS V14.01,2013-06-28 09:49:00,
2013-06-28 05:51:00,68.8,68.8,29.63,NNW,336,5.6,9.3,100,0.00,,,0.00,VWS V14.01,2013-06-28 09:51:00,
2013-06-28 05:53:00,68.2,67.9,29.63,WNW,299,2.2,9.3,99,0.00,,,0.00,VWS V14.01,2013-06-28 09:53:00,
2013-06-28 05:55:00,68.0,67.6,29.63,NW,320,3.0,9.3,99,0.00,,,0.00,VWS V14.01,2013-06-28 09:55:00,
2013-06-28 05:56:00,68.2,67.8,29.63,NW,316,2.7,9.3,99,0.00,,,0.00,VWS V14.01,2013-06-28 09:56:00,
2013-06-28 05:59:00,67.5,67.1,29.63,WNW,297,1.6,9.3,99,0.00,,,0.00,VWS V14.01,2013-06-28 09:59:00,
2013-06-28 06:00:00,67.6,67.2,29.63,NW,308,5.2,9.3,99,0.00,,,0.00,VWS V14.01,2013-06-28 10:00:00,
2013-06-28 06:02:00,67.3,67.0,29.63,NW,311,2.3,2.3,99,0.00,,,0.00,VWS V14.01,2013-06-28 10:02:00,
2013-06-28 06:04:00,67.2,67.0,29.63,NW,313,0.0,0.0,99,0.00,,,0.00,VWS V14.01,2013-06-28 10:04:00,
2013-06-28 06:05:00,67.1,66.9,29.63,NW,312,0.0,0.0,99,0.00,,,0.00,VWS V14.01,2013-06-28 10:05:00,
2013-06-28 06:09:00,66.9,66.8,29.63,NW,305,1.6,2.8,100,0.00,,,0.00,VWS V14.01,2013-06-28 10:09:00,
2013-06-28 06:10:00,66.8,66.7,29.63,NW,306,1.0,2.8,100,0.00,,,0.00,VWS V14.01,2013-06-28 10:10:00,
2013-06-28 06:11:00,66.6,66.6,29.63,NW,315,1.0,2.3,100,0.00,,,0.00,VWS V14.01,2013-06-28 10:11:00,
2013-06-28 06:15:00,66.7,66.7,29.62,NW,308,2.2,2.2,100,0.00,,,0.00,VWS V14.01,2013-06-28 10:15:00,
2013-06-28 06:16:00,66.7,66.7,29.63,NW,310,1.3,2.2,100,0.00,,,0.00,VWS V14.01,2013-06-28 10:16:00,
2013-06-28 06:17:00,66.6,66.6,29.62,NW,305,0.0,0.0,100,0.00,,,0.00,VWS V14.01,2013-06-28 10:17:00,
2013-06-28 06:20:00,66.6,66.6,29.63,NW,306,2.3,2.3,100,0.00,,,0.00,VWS V14.01,2013-06-28 10:20:00,
2013-06-28 06:21:00,66.6,66.6,29.63,NW,306,2.3,2.3,100,0.00,,,0.00,VWS V14.01,2013-06-28 10:21:00,
2013-06-28 06:22:00,66.3,66.3,29.62,NW,310,1.6,2.3,100,0.00,,,0.00,VWS V14.01,2013-06-28 10:22:00,
2013-06-28 06:23:00,66.6,66.6,29.63,NW,304,2.0,2.7,100,0.00,,,0.00,VWS V14.01,2013-06-28 10:23:00,
2013-06-28 06:26:00,66.4,66.4,29.63,NW,304,2.0,3.0,100,0.00,,,0.00,VWS V14.01,2013-06-28 10:26:00,
2013-06-28 06:27:00,66.5,66.4,29.63,NW,321,2.5,2.5,100,0.00,,,0.00,VWS V14.01,2013-06-28 10:27:00,
2013-06-28 06:28:00,66.3,66.3,29.65,WNW,292,2.2,3.7,100,0.00,,,0.00,VWS V14.01,2013-06-28 10:28:00,
2013-06-28 06:29:00,66.4,66.3,29.63,WNW,301,4.5,4.5,100,0.00,,,0.00,VWS V14.01,2013-06-28 10:29:00,
2013-06-28 06:32:00,66.2,66.1,29.63,NW,312,2.2,3.0,99,0.00,,,0.00,VWS V14.01,2013-06-28 10:32:00,
2013-06-28 06:33:00,66.1,65.9,29.63,NW,314,0.0,2.2,99,0.00,,,0.00,VWS V14.01,2013-06-28 10:33:00,
2013-06-28 06:35:00,66.2,66.0,29.63,NW,323,1.0,1.0,100,0.00,,,0.00,VWS V14.01,2013-06-28 10:35:00,
2013-06-28 06:36:00,66.2,66.0,29.63,NNW,327,0.0,1.0,99,0.00,,,0.00,VWS V14.01,2013-06-28 10:36:00,
2013-06-28 06:38:00,66.3,66.2,29.64,NNW,329,0.0,0.0,100,0.00,,,0.00,VWS V14.01,2013-06-28 10:38:00,
2013-06-28 06:40:00,66.5,66.4,29.64,NNW,341,1.1,1.1,100,0.00,,,0.00,VWS V14.01,2013-06-28 10:40:00,
2013-06-28 06:41:00,66.6,66.5,29.63,NNW,332,1.5,1.5,100,0.00,,,0.00,VWS V14.01,2013-06-28 10:41:00,
2013-06-28 06:44:00,66.6,66.5,29.63,NW,320,0.0,1.1,100,0.00,,,0.00,VWS V14.01,2013-06-28 10:44:00,
2013-06-28 06:45:00,66.7,66.5,29.63,NNW,330,0.0,1.0,99,0.00,,,0.00,VWS V14.01,2013-06-28 10:45:00,
2013-06-28 06:47:00,66.7,66.5,29.63,WNW,302,0.0,0.0,99,0.00,,,0.00,VWS V14.01,2013-06-28 10:47:00,
2013-06-28 06:48:00,66.7,66.5,29.63,WNW,302,0.0,0.0,99,0.00,,,0.00,VWS V14.01,2013-06-28 10:48:00,
2013-06-28 06:49:00,66.9,66.6,29.63,NW,318,0.0,0.0,99,0.00,,,0.00,VWS V14.01,2013-06-28 10:49:00,
2013-06-28 06:51:00,66.5,66.0,29.65,NW,307,0.0,0.0,98,0.00,,,0.00,VWS V14.01,2013-06-28 10:51:00,
2013-06-28 06:53:00,66.5,65.9,29.63,NW,307,1.1,1.1,98,0.00,,,0.00,VWS V14.01,2013-06-28 10:53:00,
2013-06-28 06:54:00,66.2,65.5,29.63,NW,319,2.3,2.3,98,0.00,,,0.00,VWS V14.01,2013-06-28 10:54:00,
2013-06-28 06:56:00,66.5,66.0,29.63,NW,308,3.0,3.0,98,0.00,,,0.00,VWS V14.01,2013-06-28 10:56:00,
2013-06-28 06:58:00,66.5,66.0,29.63,NW,312,2.7,2.7,98,0.00,,,0.00,VWS V14.01,2013-06-28 10:58:00,
2013-06-28 06:59:00,66.6,66.1,29.63,NW,305,2.0,2.3,98,0.00,,,0.00,VWS V14.01,2013-06-28 10:59:00,
2013-06-28 07:00:00,66.8,66.3,29.63,WNW,290,2.2,2.2,98,0.00,,,0.00,VWS V14.01,2013-06-28 11:00:00,
2013-06-28 07:02:00,66.8,66.3,29.63,WNW,301,3.7,3.7,98,0.00,,,0.00,VWS V14.01,2013-06-28 11:02:00,
2013-06-28 07:04:00,66.5,66.0,29.62,NW,320,1.3,3.7,98,0.00,,,0.00,VWS V14.01,2013-06-28 11:04:00,
2013-06-28 07:06:00,66.5,65.1,29.63,NW,309,1.3,3.7,95,0.00,,,0.00,VWS V14.01,2013-06-28 11:06:00,
2013-06-28 07:07:00,66.6,66.2,29.63,NW,314,2.8,3.7,99,0.00,,,0.00,VWS V14.01,2013-06-28 11:07:00,
2013-06-28 07:09:00,66.8,66.4,29.62,NW,308,3.5,3.7,99,0.00,,,0.00,VWS V14.01,2013-06-28 11:09:00,
2013-06-28 07:11:00,66.8,66.5,29.63,NW,323,4.2,4.2,99,0.00,,,0.00,VWS V14.01,2013-06-28 11:11:00,
2013-06-28 07:12:00,66.9,66.6,29.63,NNW,334,3.0,4.2,99,0.00,,,0.00,VWS V14.01,2013-06-28 11:12:00,
2013-06-28 07:13:00,66.9,66.6,29.63,NNW,334,3.0,4.2,99,0.00,,,0.00,VWS V14.01,2013-06-28 11:13:00,
2013-06-28 07:14:00,66.8,66.5,29.63,NNW,327,0.0,4.2,99,0.00,,,0.00,VWS V14.01,2013-06-28 11:14:00,
2013-06-28 07:16:00,67.2,66.9,29.63,North,351,0.0,4.2,99,0.00,,,0.00,VWS V14.01,2013-06-28 11:16:00,
2013-06-28 07:17:00,67.2,66.9,29.64,North,351,0.0,4.2,99,0.00,,,0.00,VWS V14.01,2013-06-28 11:17:00,
2013-06-28 07:18:00,67.3,65.8,29.63,North,351,0.0,4.2,95,0.00,,,0.00,VWS V14.01,2013-06-28 11:18:00,
2013-06-28 07:21:00,67.1,66.7,29.64,NNE,32,0.0,4.2,99,0.00,,,0.00,VWS V14.01,2013-06-28 11:21:00,
2013-06-28 07:22:00,67.5,67.2,29.63,NNE,19,0.0,4.2,99,0.00,,,0.00,VWS V14.01,2013-06-28 11:22:00,
2013-06-28 07:24:00,67.2,65.3,29.63,NNE,15,0.0,4.2,94,0.00,,,0.00,VWS V14.01,2013-06-28 11:24:00,
2013-06-28 07:26:00,67.4,66.9,29.63,North,11,0.0,4.2,98,0.00,,,0.00,VWS V14.01,2013-06-28 11:26:00,
2013-06-28 07:28:00,67.6,67.0,29.63,NE,46,0.0,4.2,98,0.00,,,0.00,VWS V14.01,2013-06-28 11:28:00,
2013-06-28 07:29:00,67.3,66.7,29.63,NE,46,0.0,4.2,98,0.00,,,0.00,VWS V14.01,2013-06-28 11:29:00,
2013-06-28 07:30:00,67.2,66.5,29.63,West,275,0.0,4.2,98,0.00,,,0.00,VWS V14.01,2013-06-28 11:30:00,
2013-06-28 07:31:00,67.2,66.5,29.63,West,275,0.0,4.2,98,0.00,,,0.00,VWS V14.01,2013-06-28 11:31:00,
2013-06-28 07:34:00,67.3,66.5,29.63,WNW,289,0.0,4.2,97,0.00,,,0.00,VWS V14.01,2013-06-28 11:34:00,
2013-06-28 07:36:00,67.3,66.5,29.64,WNW,289,0.0,4.2,97,0.00,,,0.00,VWS V14.01,2013-06-28 11:36:00,
2013-06-28 07:37:00,67.3,66.6,29.63,WNW,289,0.0,4.2,97,0.00,,,0.00,VWS V14.01,2013-06-28 11:37:00,
2013-06-28 07:39:00,67.3,66.5,29.63,NW,312,0.0,4.2,97,0.00,,,0.00,VWS V14.01,2013-06-28 11:39:00,
2013-06-28 07:41:00,67.3,66.4,29.63,WNW,296,0.0,4.2,97,0.00,,,0.00,VWS V14.01,2013-06-28 11:41:00,
2013-06-28 07:42:00,67.2,66.4,29.64,WNW,296,0.0,4.2,97,0.00,,,0.04,VWS V14.01,2013-06-28 11:42:00,
2013-06-28 07:43:00,67.3,66.5,29.63,WNW,295,0.0,4.2,97,0.00,,,0.00,VWS V14.01,2013-06-28 11:43:00,
2013-06-28 07:45:00,67.5,66.6,29.63,NNW,348,0.0,4.2,97,0.00,,,0.00,VWS V14.01,2013-06-28 11:45:00,
2013-06-28 07:47:00,67.5,66.6,29.63,WNW,289,0.0,4.2,97,0.00,,,0.00,VWS V14.01,2013-06-28 11:47:00,
2013-06-28 07:48:00,67.7,66.9,29.64,WNW,289,0.0,4.2,97,0.00,,,0.00,VWS V14.01,2013-06-28 11:48:00,
2013-06-28 07:51:00,67.5,66.5,29.64,North,6,1.1,4.2,97,0.00,,,0.00,VWS V14.01,2013-06-28 11:51:00,
2013-06-28 07:52:00,67.7,66.7,29.63,NNE,14,0.0,4.2,97,0.00,,,0.00,VWS V14.01,2013-06-28 11:52:00,
2013-06-28 07:54:00,67.3,66.3,29.63,NW,322,0.0,4.2,96,0.00,,,0.00,VWS V14.01,2013-06-28 11:54:00,
2013-06-28 07:55:00,67.2,66.1,29.63,North,9,3.5,4.2,96,0.00,,,0.00,VWS V14.01,2013-06-28 11:55:00,
2013-06-28 07:58:00,67.4,66.3,29.64,NW,312,1.3,4.2,96,0.00,,,0.00,VWS V14.01,2013-06-28 11:58:00,
2013-06-28 07:59:00,67.4,66.3,29.64,NW,312,1.3,4.2,96,0.00,,,0.00,VWS V14.01,2013-06-28 11:59:00,
2013-06-28 08:00:00,67.5,66.5,29.63,NNW,346,0.0,4.2,96,0.00,,,0.00,VWS V14.01,2013-06-28 12:00:00,
2013-06-28 08:01:00,67.6,66.5,29.63,WNW,290,1.1,4.2,96,0.00,,,0.00,VWS V14.01,2013-06-28 12:01:00,
2013-06-28 08:04:00,69.0,67.5,29.64,NNW,328,2.8,2.8,95,0.00,,,0.00,VWS V14.01,2013-06-28 12:04:00,
2013-06-28 08:05:00,69.4,67.8,29.64,NNE,33,0.0,2.8,95,0.00,,,0.00,VWS V14.01,2013-06-28 12:05:00,
2013-06-28 08:09:00,70.2,67.4,29.64,NW,321,1.5,4.2,91,0.00,,,0.00,VWS V14.01,2013-06-28 12:09:00,
2013-06-28 08:10:00,69.6,66.3,29.64,West,264,1.5,4.2,89,0.00,,,0.00,VWS V14.01,2013-06-28 12:10:00,
2013-06-28 08:11:00,69.7,65.9,29.63,WNW,297,2.3,4.2,88,0.00,,,0.00,VWS V14.01,2013-06-28 12:11:00,
2013-06-28 08:12:00,70.1,66.2,29.63,NW,318,3.5,4.2,87,0.00,,,0.00,VWS V14.01,2013-06-28 12:12:00,
2013-06-28 08:15:00,70.7,65.6,29.63,NE,41,3.0,4.2,84,0.00,,,0.00,VWS V14.01,2013-06-28 12:15:00,
2013-06-28 08:16:00,70.7,65.8,29.62,WNW,291,0.0,4.2,84,0.00,,,0.00,VWS V14.01,2013-06-28 12:16:00,
2013-06-28 08:17:00,70.3,64.9,29.63,NW,320,2.8,5.4,83,0.00,,,0.00,VWS V14.01,2013-06-28 12:17:00,
2013-06-28 08:18:00,70.7,65.4,29.63,NNW,328,2.5,7.8,83,0.00,,,0.00,VWS V14.01,2013-06-28 12:18:00,
2013-06-28 08:22:00,70.1,64.7,29.64,WNW,303,3.5,7.8,83,0.00,,,0.00,VWS V14.01,2013-06-28 12:22:00,
2013-06-28 08:23:00,70.0,64.1,29.63,WNW,301,5.2,7.8,82,0.00,,,0.00,VWS V14.01,2013-06-28 12:23:00,
2013-06-28 08:24:00,69.8,64.3,29.63,NW,321,5.7,7.8,83,0.00,,,0.00,VWS V14.01,2013-06-28 12:24:00,
2013-06-28 08:27:00,70.1,63.9,29.63,NNW,330,5.7,7.8,81,0.00,,,0.00,VWS V14.01,2013-06-28 12:27:00,
2013-06-28 08:28:00,69.7,64.5,29.63,North,351,3.9,7.8,84,0.00,,,0.00,VWS V14.01,2013-06-28 12:28:00,
2013-06-28 08:29:00,69.1,63.5,29.63,WNW,291,5.6,7.8,83,0.00,,,0.00,VWS V14.01,2013-06-28 12:29:00,
2013-06-28 08:30:00,69.4,63.9,29.63,NW,323,7.1,7.8,82,0.00,,,0.00,VWS V14.01,2013-06-28 12:30:00,
2013-06-28 08:33:00,68.6,63.1,29.63,NW,305,8.0,9.7,83,0.00,,,0.00,VWS V14.01,2013-06-28 12:33:00,
2013-06-28 08:35:00,68.7,63.7,29.62,NW,314,6.6,9.7,84,0.00,,,0.00,VWS V14.01,2013-06-28 12:35:00,
2013-06-28 08:36:00,68.7,64.0,29.63,NW,306,6.6,9.7,85,0.00,,,0.00,VWS V14.01,2013-06-28 12:36:00,
2013-06-28 08:37:00,68.6,64.2,29.63,NW,304,7.6,9.7,86,0.00,,,0.00,VWS V14.01,2013-06-28 12:37:00,
2013-06-28 08:39:00,68.7,64.4,29.63,NW,313,6.6,9.7,86,0.00,,,0.00,VWS V14.01,2013-06-28 12:39:00,
2013-06-28 08:41:00,68.4,65.1,29.63,NW,317,6.3,9.7,89,0.00,,,0.00,VWS V14.01,2013-06-28 12:41:00,
2013-06-28 08:42:00,68.4,65.1,29.63,NW,317,6.3,9.7,89,0.00,,,0.00,VWS V14.01,2013-06-28 12:42:00,
2013-06-28 08:43:00,68.6,65.4,29.63,WNW,299,7.3,9.7,90,0.00,,,0.00,VWS V14.01,2013-06-28 12:43:00,
2013-06-28 08:44:00,68.3,64.7,29.63,NW,306,6.8,9.7,88,0.00,,,0.00,VWS V14.01,2013-06-28 12:44:00,
2013-06-28 08:45:00,68.4,64.9,29.62,WNW,291,6.9,9.7,88,0.00,,,0.00,VWS V14.01,2013-06-28 12:45:00,
2013-06-28 08:47:00,68.5,64.8,29.62,WNW,294,6.1,9.7,88,0.00,,,0.00,VWS V14.01,2013-06-28 12:47:00,
2013-06-28 08:49:00,69.3,66.0,29.62,NW,314,4.4,9.7,89,0.00,,,0.00,VWS V14.01,2013-06-28 12:49:00,
2013-06-28 08:50:00,69.2,65.6,29.63,NW,311,5.4,9.7,88,0.00,,,0.00,VWS V14.01,2013-06-28 12:50:00,
2013-06-28 08:51:00,69.3,65.3,29.62,NW,311,4.7,9.7,87,0.00,,,0.00,VWS V14.01,2013-06-28 12:51:00,
2013-06-28 08:52:00,69.1,64.6,29.63,WNW,294,5.2,9.7,86,0.00,,,0.00,VWS V14.01,2013-06-28 12:52:00,
2013-06-28 08:54:00,69.7,65.0,29.62,WNW,292,4.5,9.7,85,0.00,,,0.00,VWS V14.01,2013-06-28 12:54:00,
2013-06-28 08:55:00,70.0,65.2,29.62,NW,320,5.9,9.7,85,0.00,,,0.00,VWS V14.01,2013-06-28 12:55:00,
2013-06-28 08:56:00,70.1,65.1,29.62,WNW,299,7.8,9.7,84,0.00,,,0.00,VWS V14.01,2013-06-28 12:56:00,
2013-06-28 08:57:00,70.4,65.4,29.62,WNW,300,6.9,9.7,84,0.00,,,0.00,VWS V14.01,2013-06-28 12:57:00,
2013-06-28 08:59:00,70.2,63.8,29.63,NW,321,6.6,9.7,80,0.00,,,0.00,VWS V14.01,2013-06-28 12:59:00,
2013-06-28 09:00:00,70.2,63.8,29.63,NW,321,6.6,9.7,80,0.00,,,0.00,VWS V14.01,2013-06-28 13:00:00,
2013-06-28 09:02:00,71.1,64.0,29.64,NNW,341,5.7,9.5,78,0.00,,,0.00,VWS V14.01,2013-06-28 13:02:00,
2013-06-28 09:05:00,71.3,63.1,29.63,NW,308,4.2,9.5,75,0.00,,,0.00,VWS V14.01,2013-06-28 13:05:00,
2013-06-28 09:07:00,71.2,62.2,29.63,NW,308,6.9,9.5,73,0.00,,,0.00,VWS V14.01,2013-06-28 13:07:00,
2013-06-28 09:08:00,72.9,63.8,29.62,NNW,328,2.3,9.5,73,0.00,,,0.00,VWS V14.01,2013-06-28 13:08:00,
2013-06-28 09:09:00,71.8,62.5,29.62,WNW,299,5.6,9.5,73,0.00,,,0.00,VWS V14.01,2013-06-28 13:09:00,
2013-06-28 09:11:00,70.9,60.8,29.63,North,9,7.3,9.5,70,0.00,,,0.00,VWS V14.01,2013-06-28 13:11:00,
2013-06-28 09:12:00,71.6,60.4,29.63,North,351,8.7,9.5,68,0.00,,,0.00,VWS V14.01,2013-06-28 13:12:00,
2013-06-28 09:13:00,71.8,60.8,29.63,WNW,286,5.6,9.5,68,0.00,,,0.00,VWS V14.01,2013-06-28 13:13:00,
2013-06-28 09:14:00,71.4,61.0,29.63,WNW,303,4.9,9.5,70,0.00,,,0.00,VWS V14.01,2013-06-28 13:14:00,
2013-06-28 09:16:00,71.3,61.3,29.63,NW,322,4.0,9.5,71,0.00,,,0.00,VWS V14.01,2013-06-28 13:16:00,
2013-06-28 09:17:00,73.3,62.5,29.62,NNE,13,6.6,9.5,69,0.00,,,0.00,VWS V14.01,2013-06-28 13:17:00,
2013-06-28 09:18:00,73.3,62.5,29.62,NNE,13,6.6,9.5,69,0.00,,,0.00,VWS V14.01,2013-06-28 13:18:00,
2013-06-28 09:20:00,72.7,59.9,29.62,NW,321,5.9,9.5,64,0.00,,,0.00,VWS V14.01,2013-06-28 13:20:00,
2013-06-28 09:21:00,73.4,60.2,29.63,West,281,2.7,9.5,63,0.00,,,0.00,VWS V14.01,2013-06-28 13:21:00,
2013-06-28 09:22:00,72.7,59.2,29.63,NNW,330,5.9,9.5,62,0.00,,,0.00,VWS V14.01,2013-06-28 13:22:00,
2013-06-28 09:24:00,72.7,59.5,29.63,NNE,33,4.4,9.5,63,0.00,,,0.00,VWS V14.01,2013-06-28 13:24:00,
2013-06-28 09:26:00,74.2,61.8,29.62,WNW,286,4.7,9.5,65,0.00,,,0.00,VWS V14.01,2013-06-28 13:26:00,
2013-06-28 09:27:00,72.7,59.1,29.61,NW,309,6.8,9.5,62,0.00,,,0.00,VWS V14.01,2013-06-28 13:27:00,
2013-06-28 09:30:00,74.7,59.9,29.62,NNW,331,3.9,9.5,60,0.00,,,0.00,VWS V14.01,2013-06-28 13:30:00,
2013-06-28 09:31:00,72.5,57.2,29.62,NW,321,2.3,9.5,59,0.00,,,0.00,VWS V14.01,2013-06-28 13:31:00,
2013-06-28 09:32:00,71.8,57.5,29.63,North,1,5.9,9.5,61,0.00,,,0.00,VWS V14.01,2013-06-28 13:32:00,
2013-06-28 09:33:00,75.3,62.7,29.62,WNW,298,0.0,9.5,65,0.00,,,0.00,VWS V14.01,2013-06-28 13:33:00,
2013-06-28 09:35:00,73.7,60.6,29.61,WNW,295,3.4,9.5,64,0.00,,,0.00,VWS V14.01,2013-06-28 13:35:00,
2013-06-28 09:36:00,74.8,62.8,29.62,North,6,4.2,9.5,66,0.00,,,0.00,VWS V14.01,2013-06-28 13:36:00,
2013-06-28 09:37:00,71.1,55.8,29.63,NW,324,7.5,9.5,59,0.00,,,0.00,VWS V14.01,2013-06-28 13:37:00,
2013-06-28 09:38:00,71.7,58.6,29.61,NNW,327,8.5,9.5,63,0.00,,,0.00,VWS V14.01,2013-06-28 13:38:00,
2013-06-28 09:42:00,72.2,58.8,29.62,WNW,288,5.2,9.5,63,0.00,,,0.00,VWS V14.01,2013-06-28 13:42:00,
2013-06-28 09:43:00,72.7,57.5,29.62,North,350,3.9,9.5,59,0.00,,,0.00,VWS V14.01,2013-06-28 13:43:00,
2013-06-28 09:44:00,72.7,57.5,29.62,North,350,3.9,9.5,59,0.00,,,0.00,VWS V14.01,2013-06-28 13:44:00,
2013-06-28 09:45:00,71.9,55.8,29.62,NW,326,6.3,9.5,57,0.00,,,0.00,VWS V14.01,2013-06-28 13:45:00,
2013-06-28 09:47:00,71.6,56.7,29.62,WNW,295,5.7,9.5,59,0.00,,,0.00,VWS V14.01,2013-06-28 13:47:00,
2013-06-28 09:48:00,71.6,56.8,29.62,NE,35,4.7,9.5,60,0.00,,,0.00,VWS V14.01,2013-06-28 13:48:00,
2013-06-28 09:49:00,72.8,56.0,29.61,NNW,337,5.9,9.5,56,0.00,,,0.00,VWS V14.01,2013-06-28 13:49:00,
2013-06-28 09:51:00,73.7,58.2,29.61,NE,47,4.7,9.5,58,0.00,,,0.00,VWS V14.01,2013-06-28 13:51:00,
2013-06-28 09:53:00,73.6,59.8,29.61,NW,310,4.4,9.5,62,0.00,,,0.00,VWS V14.01,2013-06-28 13:53:00,
2013-06-28 09:54:00,72.4,56.9,29.61,WNW,292,8.1,9.5,58,0.00,,,0.00,VWS V14.01,2013-06-28 13:54:00,
2013-06-28 09:56:00,73.2,57.1,29.63,NNW,339,5.2,9.5,57,0.00,,,0.00,VWS V14.01,2013-06-28 13:56:00,
2013-06-28 09:57:00,73.5,58.4,29.62,NNW,337,7.5,9.5,59,0.00,,,0.00,VWS V14.01,2013-06-28 13:57:00,
2013-06-28 09:58:00,73.1,57.3,29.62,NW,308,4.4,9.5,58,0.00,,,0.00,VWS V14.01,2013-06-28 13:58:00,
2013-06-28 09:59:00,73.3,55.5,29.62,North,0,6.9,9.5,54,0.00,,,0.00,VWS V14.01,2013-06-28 13:59:00,
2013-06-28 10:01:00,72.7,55.4,29.62,NNW,342,5.9,9.5,55,0.00,,,0.00,VWS V14.01,2013-06-28 14:01:00,
2013-06-28 10:02:00,72.1,54.1,29.62,NW,316,8.7,8.7,53,0.00,,,0.00,VWS V14.01,2013-06-28 14:02:00,
2013-06-28 10:03:00,73.6,57.0,29.63,NNW,331,5.9,6.4,56,0.00,,,0.00,VWS V14.01,2013-06-28 14:03:00,
2013-06-28 10:04:00,73.7,56.9,29.62,NNW,327,4.4,5.9,56,0.00,,,0.00,VWS V14.01,2013-06-28 14:04:00,
2013-06-28 10:05:00,72.4,52.9,29.62,WNW,303,6.3,6.3,50,0.00,,,0.00,VWS V14.01,2013-06-28 14:05:00,
2013-06-28 10:07:00,72.7,58.4,29.62,NW,306,6.3,7.1,61,0.00,,,0.00,VWS V14.01,2013-06-28 14:07:00,
2013-06-28 10:08:00,73.2,59.8,29.62,WNW,291,5.6,5.6,63,0.00,,,0.00,VWS V14.01,2013-06-28 14:08:00,
2013-06-28 10:10:00,72.7,58.4,29.62,NW,314,6.8,9.7,61,0.00,,,0.00,VWS V14.01,2013-06-28 14:10:00,
2013-06-28 10:12:00,71.1,53.7,29.62,WNW,288,9.5,11.6,54,0.00,,,0.00,VWS V14.01,2013-06-28 14:12:00,
2013-06-28 10:14:00,71.4,56.7,29.62,WNW,301,10.7,10.7,60,0.00,,,0.00,VWS V14.01,2013-06-28 14:14:00,
2013-06-28 10:16:00,71.0,56.7,29.62,West,276,8.3,9.5,61,0.00,,,0.00,VWS V14.01,2013-06-28 14:16:00,
2013-06-28 10:18:00,72.3,58.2,29.62,NW,321,7.8,9.2,61,0.00,,,0.00,VWS V14.01,2013-06-28 14:18:00,
2013-06-28 10:19:00,72.7,59.6,29.62,NW,304,5.9,5.9,63,0.00,,,0.00,VWS V14.01,2013-06-28 14:19:00,
2013-06-28 10:20:00,72.5,57.2,29.62,NW,309,8.7,8.7,59,0.00,,,0.00,VWS V14.01,2013-06-28 14:20:00,
2013-06-28 10:21:00,72.5,57.2,29.62,NW,309,8.7,8.7,59,0.00,,,0.00,VWS V14.01,2013-06-28 14:21:00,
2013-06-28 10:23:00,71.2,54.0,29.62,NW,315,8.7,8.7,55,0.00,,,0.00,VWS V14.01,2013-06-28 14:23:00,
2013-06-28 10:24:00,71.7,54.1,29.62,NW,320,7.8,8.7,54,0.00,,,0.00,VWS V14.01,2013-06-28 14:24:00,
2013-06-28 10:25:00,72.2,53.6,29.64,NNW,328,9.5,10.0,52,0.00,,,0.00,VWS V14.01,2013-06-28 14:25:00,
2013-06-28 10:26:00,72.6,55.7,29.62,WNW,285,8.0,8.0,55,0.00,,,0.00,VWS V14.01,2013-06-28 14:26:00,
2013-06-28 10:27:00,72.7,52.4,29.62,WNW,300,11.4,11.4,49,0.00,,,0.00,VWS V14.01,2013-06-28 14:27:00,
2013-06-28 10:29:00,72.9,55.2,29.62,NW,304,6.8,7.5,54,0.00,,,0.00,VWS V14.01,2013-06-28 14:29:00,
2013-06-28 10:31:00,74.9,58.6,29.62,North,351,1.3,5.6,57,0.00,,,0.00,VWS V14.01,2013-06-28 14:31:00,
2013-06-28 10:32:00,73.0,52.4,29.61,NW,304,7.3,7.3,49,0.00,,,0.00,VWS V14.01,2013-06-28 14:32:00,
2013-06-28 10:33:00,72.5,51.2,29.61,NW,309,4.4,7.3,47,0.00,,,0.00,VWS V14.01,2013-06-28 14:33:00,
2013-06-28 10:34:00,73.0,55.3,29.61,NW,305,6.1,6.1,54,0.00,,,0.00,VWS V14.01,2013-06-28 14:34:00,
2013-06-28 10:35:00,72.9,55.9,29.61,WNW,299,8.5,8.5,55,0.00,,,0.00,VWS V14.01,2013-06-28 14:35:00,
2013-06-28 10:36:00,71.7,54.2,29.62,WNW,293,10.0,10.0,54,0.00,,,0.00,VWS V14.01,2013-06-28 14:36:00,
2013-06-28 10:38:00,72.0,53.9,29.61,WNW,290,9.0,9.0,53,0.00,,,0.00,VWS V14.01,2013-06-28 14:38:00,
2013-06-28 10:39:00,73.3,56.1,29.62,NNW,328,6.6,6.8,55,0.00,,,0.00,VWS V14.01,2013-06-28 14:39:00,
2013-06-28 10:40:00,74.0,56.6,29.62,NNW,344,5.2,6.6,54,0.00,,,0.00,VWS V14.01,2013-06-28 14:40:00,
2013-06-28 10:43:00,74.1,53.3,29.61,NW,325,6.3,9.5,48,0.00,,,0.00,VWS V14.01,2013-06-28 14:43:00,
2013-06-28 10:44:00,76.4,56.5,29.62,NW,306,0.0,4.7,50,0.00,,,0.04,VWS V14.01,2013-06-28 14:44:00,
2013-06-28 10:45:00,76.4,56.5,29.62,NW,306,0.0,4.7,50,0.00,,,0.00,VWS V14.01,2013-06-28 14:45:00,
2013-06-28 10:46:00,74.4,51.9,29.62,North,0,7.3,7.3,45,0.00,,,0.00,VWS V14.01,2013-06-28 14:46:00,
2013-06-28 10:49:00,74.4,55.9,29.61,WNW,294,6.1,6.1,53,0.00,,,0.00,VWS V14.01,2013-06-28 14:49:00,
2013-06-28 10:51:00,74.2,52.8,29.61,North,9,7.1,9.3,47,0.00,,,0.00,VWS V14.01,2013-06-28 14:51:00,
2013-06-28 10:52:00,76.1,55.0,29.61,NNW,336,1.3,1.3,48,0.00,,,0.00,VWS V14.01,2013-06-28 14:52:00,
2013-06-28 10:54:00,74.7,56.4,29.61,NNW,328,10.5,10.5,53,0.00,,,0.00,VWS V14.01,2013-06-28 14:54:00,
2013-06-28 10:55:00,73.6,52.0,29.61,NW,311,10.0,10.5,47,0.00,,,0.00,VWS V14.01,2013-06-28 14:55:00,
2013-06-28 10:56:00,73.7,52.7,29.61,WNW,302,9.7,9.7,48,0.00,,,0.00,VWS V14.01,2013-06-28 14:56:00,
2013-06-28 10:57:00,73.4,51.4,29.61,NW,318,10.5,10.5,46,0.00,,,0.00,VWS V14.01,2013-06-28 14:57:00,
2013-06-28 11:00:00,75.0,55.0,29.62,NNW,330,4.2,7.3,50,0.00,,,0.00,VWS V14.01,2013-06-28 15:00:00,
2013-06-28 11:01:00,75.4,57.0,29.61,North,349,4.7,7.3,53,0.00,,,0.00,VWS V14.01,2013-06-28 15:01:00,
2013-06-28 11:02:00,74.6,53.9,29.61,NW,306,4.0,4.7,49,0.00,,,0.00,VWS V14.01,2013-06-28 15:02:00,
2013-06-28 11:04:00,72.8,47.9,29.62,West,274,11.6,11.6,41,0.00,,,0.00,VWS V14.01,2013-06-28 15:04:00,
2013-06-28 11:06:00,73.4,51.1,29.61,NW,309,9.3,10.4,46,0.00,,,0.00,VWS V14.01,2013-06-28 15:06:00,
2013-06-28 11:07:00,74.6,55.8,29.61,NW,321,7.5,7.5,52,0.00,,,0.00,VWS V14.01,2013-06-28 15:07:00,
2013-06-28 11:08:00,74.6,55.8,29.61,NW,321,7.5,7.5,52,0.00,,,0.00,VWS V14.01,2013-06-28 15:08:00,
2013-06-28 11:11:00,74.2,48.8,29.61,NW,314,10.5,10.5,41,0.00,,,0.00,VWS V14.01,2013-06-28 15:11:00,
2013-06-28 11:12:00,74.2,51.5,29.62,NW,313,9.2,10.5,45,0.00,,,0.00,VWS V14.01,2013-06-28 15:12:00,
2013-06-28 11:13:00,75.5,53.7,29.61,NNW,330,3.9,9.2,47,0.00,,,0.00,VWS V14.01,2013-06-28 15:13:00,
2013-06-28 11:17:00,72.6,54.0,29.61,WNW,289,5.7,8.0,52,0.00,,,0.00,VWS V14.01,2013-06-28 15:17:00,
2013-06-28 11:19:00,73.4,53.4,29.62,WNW,289,11.2,11.2,49,0.00,,,0.00,VWS V14.01,2013-06-28 15:19:00,
2013-06-28 11:20:00,73.5,53.4,29.62,NW,326,8.7,14.0,49,0.00,,,0.00,VWS V14.01,2013-06-28 15:20:00,
2013-06-28 11:21:00,72.9,52.8,29.61,WNW,285,8.7,8.7,49,0.00,,,0.00,VWS V14.01,2013-06-28 15:21:00,
2013-06-28 11:23:00,74.2,54.9,29.62,NW,322,8.1,8.5,51,0.00,,,0.00,VWS V14.01,2013-06-28 15:23:00,
2013-06-28 11:25:00,74.2,53.9,29.61,West,263,8.8,8.8,49,0.00,,,0.00,VWS V14.01,2013-06-28 15:25:00,
2013-06-28 11:26:00,74.0,51.1,29.61,NNW,332,11.7,11.7,45,0.00,,,0.00,VWS V14.01,2013-06-28 15:26:00,
2013-06-28 11:27:00,72.8,49.8,29.61,WNW,286,11.2,12.1,44,0.00,,,0.00,VWS V14.01,2013-06-28 15:27:00,
2013-06-28 11:29:00,73.9,53.5,29.62,NNW,327,8.1,12.8,49,0.00,,,0.00,VWS V14.01,2013-06-28 15:29:00,
2013-06-28 11:30:00,73.7,50.3,29.62,NNW,329,10.2,10.2,44,0.00,,,0.00,VWS V14.01,2013-06-28 15:30:00,
2013-06-28 11:31:00,74.3,53.4,29.61,NNW,331,5.9,10.2,48,0.00,,,0.00,VWS V14.01,2013-06-28 15:31:00,
2013-06-28 11:32:00,74.3,51.3,29.61,WNW,294,4.5,10.5,44,0.00,,,0.00,VWS V14.01,2013-06-28 15:32:00,
2013-06-28 11:36:00,75.1,54.2,29.61,NW,306,3.4,3.4,48,0.00,,,0.00,VWS V14.01,2013-06-28 15:36:00,
2013-06-28 11:37:00,74.6,55.7,29.61,WNW,291,8.5,8.5,52,0.00,,,0.00,VWS V14.01,2013-06-28 15:37:00,
2013-06-28 11:38:00,73.9,52.2,29.61,WNW,295,10.7,10.7,47,0.00,,,0.00,VWS V14.01,2013-06-28 15:38:00,
2013-06-28 11:39:00,74.0,52.0,29.61,WNW,285,13.3,13.3,46,0.00,,,0.00,VWS V14.01,2013-06-28 15:39:00,
2013-06-28 11:41:00,73.6,52.2,29.61,West,281,10.4,10.4,47,0.00,,,0.00,VWS V14.01,2013-06-28 15:41:00,
2013-06-28 11:42:00,74.4,52.7,29.61,NW,306,8.5,10.4,47,0.00,,,0.00,VWS V14.01,2013-06-28 15:42:00,
2013-06-28 11:44:00,75.4,53.2,29.61,NW,318,4.9,11.6,46,0.00,,,0.00,VWS V14.01,2013-06-28 15:44:00,
2013-06-28 11:45:00,75.6,54.4,29.62,NW,316,3.7,4.9,48,0.00,,,0.00,VWS V14.01,2013-06-28 15:45:00,
2013-06-28 11:46:00,74.7,51.0,29.62,WNW,300,8.1,8.5,43,0.00,,,0.00,VWS V14.01,2013-06-28 15:46:00,
2013-06-28 11:48:00,75.0,55.2,29.62,NW,317,6.9,10.4,50,0.00,,,0.00,VWS V14.01,2013-06-28 15:48:00,
2013-06-28 11:50:00,74.9,54.8,29.61,WNW,285,7.3,7.3,50,0.00,,,0.00,VWS V14.01,2013-06-28 15:50:00,
2013-06-28 11:51:00,74.6,57.0,29.61,WNW,285,5.7,7.3,54,0.00,,,0.00,VWS V14.01,2013-06-28 15:51:00,
2013-06-28 11:53:00,74.6,57.0,29.61,WNW,285,5.7,7.3,54,0.00,,,0.00,VWS V14.01,2013-06-28 15:53:00,
2013-06-28 11:54:00,73.7,51.7,29.61,NW,307,13.1,13.1,46,0.00,,,0.00,VWS V14.01,2013-06-28 15:54:00,
2013-06-28 11:57:00,74.8,53.8,29.61,NW,311,9.3,9.3,48,0.00,,,0.00,VWS V14.01,2013-06-28 15:57:00,
2013-06-28 11:58:00,75.0,54.4,29.61,NW,322,10.5,11.6,49,0.00,,,0.00,VWS V14.01,2013-06-28 15:58:00,
2013-06-28 11:59:00,74.7,54.1,29.62,WNW,300,8.3,10.0,49,0.00,,,0.00,VWS V14.01,2013-06-28 15:59:00,
2013-06-28 12:01:00,74.0,53.7,29.61,NW,311,10.9,10.9,49,0.00,,,0.00,VWS V14.01,2013-06-28 16:01:00,
2013-06-28 12:02:00,74.4,53.1,29.61,West,275,12.6,12.6,47,0.00,,,0.00,VWS V14.01,2013-06-28 16:02:00,
2013-06-28 12:03:00,74.6,53.0,29.61,NW,318,12.8,12.8,47,0.00,,,0.00,VWS V14.01,2013-06-28 16:03:00,
2013-06-28 12:06:00,75.4,53.2,29.61,NW,326,10.5,10.5,46,0.00,,,0.00,VWS V14.01,2013-06-28 16:06:00,
2013-06-28 12:07:00,75.0,55.1,29.60,NW,311,11.2,12.6,50,0.00,,,0.00,VWS V14.01,2013-06-28 16:07:00,
2013-06-28 12:08:00,74.7,52.8,29.61,NW,304,13.1,13.1,46,0.00,,,0.00,VWS V14.01,2013-06-28 16:08:00,
2013-06-28 12:09:00,75.3,55.7,29.61,NW,310,9.2,13.1,51,0.00,,,0.00,VWS V14.01,2013-06-28 16:09:00,
2013-06-28 12:12:00,74.4,52.8,29.60,WNW,296,8.5,8.5,47,0.00,,,0.00,VWS V14.01,2013-06-28 16:12:00,
2013-06-28 12:13:00,74.6,52.7,29.60,West,265,8.1,8.5,46,0.00,,,0.00,VWS V14.01,2013-06-28 16:13:00,
2013-06-28 12:14:00,75.7,56.6,29.61,NW,308,8.5,8.5,52,0.00,,,0.00,VWS V14.01,2013-06-28 16:14:00,
2013-06-28 12:16:00,75.0,51.7,29.61,NW,308,14.0,14.6,44,0.00,,,0.00,VWS V14.01,2013-06-28 16:16:00,
2013-06-28 12:17:00,74.8,51.6,29.60,WNW,296,13.5,13.5,44,0.00,,,0.00,VWS V14.01,2013-06-28 16:17:00,
2013-06-28 12:18:00,75.0,53.5,29.61,West,264,10.5,13.5,47,0.00,,,0.00,VWS V14.01,2013-06-28 16:18:00,
2013-06-28 12:20:00,74.8,50.5,29.62,NW,306,11.6,11.7,42,0.00,,,0.00,VWS V14.01,2013-06-28 16:20:00,
2013-06-28 12:21:00,75.3,52.1,29.61,NW,323,13.3,13.3,44,0.00,,,0.00,VWS V14.01,2013-06-28 16:21:00,
2013-06-28 12:23:00,75.0,53.2,29.61,NW,326,12.3,12.3,47,0.00,,,0.00,VWS V14.01,2013-06-28 16:23:00,
2013-06-28 12:24:00,74.9,51.1,29.61,NNW,328,15.8,15.8,43,0.00,,,0.00,VWS V14.01,2013-06-28 16:24:00,
2013-06-28 12:25:00,75.1,48.3,29.61,NW,324,10.4,15.8,39,0.00,,,0.00,VWS V14.01,2013-06-28 16:25:00,
2013-06-28 12:27:00,75.1,50.7,29.60,WNW,293,12.8,15.3,42,0.00,,,0.00,VWS V14.01,2013-06-28 16:27:00,
2013-06-28 12:28:00,75.3,50.9,29.60,NW,319,11.6,13.5,42,0.00,,,0.00,VWS V14.01,2013-06-28 16:28:00,
2013-06-28 12:29:00,75.3,50.9,29.60,NW,319,11.6,13.5,42,0.00,,,0.00,VWS V14.01,2013-06-28 16:29:00,
2013-06-28 12:30:00,75.7,51.6,29.60,NNW,330,11.1,11.1,43,0.00,,,0.00,VWS V14.01,2013-06-28 16:30:00,
2013-06-28 12:33:00,75.4,49.3,29.60,NW,305,8.1,10.2,40,0.00,,,0.00,VWS V14.01,2013-06-28 16:33:00,
2013-06-28 12:34:00,76.4,54.7,29.60,WNW,297,8.5,8.5,47,0.00,,,0.00,VWS V14.01,2013-06-28 16:34:00,
2013-06-28 12:35:00,76.4,54.7,29.60,NW,319,7.6,8.5,47,0.00,,,0.00,VWS V14.01,2013-06-28 16:35:00,
2013-06-28 12:36:00,74.9,51.9,29.60,NW,307,11.4,12.9,45,0.00,,,0.00,VWS V14.01,2013-06-28 16:36:00,
2013-06-28 12:37:00,74.3,51.9,29.60,West,268,8.0,13.6,46,0.00,,,0.00,VWS V14.01,2013-06-28 16:37:00,
2013-06-28 12:39:00,75.3,53.2,29.60,WNW,290,10.2,11.2,46,0.00,,,0.00,VWS V14.01,2013-06-28 16:39:00,
2013-06-28 12:41:00,75.3,51.3,29.60,NW,304,12.8,15.7,43,0.00,,,0.00,VWS V14.01,2013-06-28 16:41:00,
2013-06-28 12:42:00,75.2,50.7,29.59,WNW,294,12.4,12.4,42,0.00,,,0.00,VWS V14.01,2013-06-28 16:42:00,
2013-06-28 12:43:00,75.3,50.4,29.60,West,281,12.1,12.3,42,0.00,,,0.00,VWS V14.01,2013-06-28 16:43:00,
2013-06-28 12:45:00,75.2,50.0,29.60,NW,307,13.1,13.1,41,0.00,,,0.00,VWS V14.01,2013-06-28 16:45:00,
2013-06-28 12:46:00,75.7,53.2,29.60,NNW,330,10.4,13.1,46,0.00,,,0.00,VWS V14.01,2013-06-28 16:46:00,
2013-06-28 12:47:00,75.4,52.0,29.60,NW,312,10.7,10.7,44,0.00,,,0.00,VWS V14.01,2013-06-28 16:47:00,
2013-06-28 12:48:00,75.5,51.5,29.60,NW,316,10.4,10.7,43,0.00,,,0.00,VWS V14.01,2013-06-28 16:48:00,
2013-06-28 12:49:00,76.2,54.6,29.60,WNW,287,9.3,11.6,47,0.00,,,0.00,VWS V14.01,2013-06-28 16:49:00,
2013-06-28 12:51:00,76.5,54.8,29.60,NW,318,10.0,14.1,47,0.00,,,0.00,VWS V14.01,2013-06-28 16:51:00,
2013-06-28 12:52:00,75.6,50.1,29.59,NNW,341,15.2,15.2,41,0.00,,,0.00,VWS V14.01,2013-06-28 16:52:00,
2013-06-28 12:55:00,75.9,49.8,29.60,NNW,331,11.7,14.8,40,0.00,,,0.00,VWS V14.01,2013-06-28 16:55:00,
2013-06-28 12:57:00,76.3,53.3,29.60,NW,316,8.7,12.3,45,0.00,,,0.00,VWS V14.01,2013-06-28 16:57:00,
2013-06-28 12:58:00,75.6,49.2,29.60,NW,307,9.2,9.2,39,0.00,,,0.00,VWS V14.01,2013-06-28 16:58:00,
2013-06-28 13:01:00,76.3,52.4,29.60,NNW,331,7.8,9.0,43,0.00,,,0.00,VWS V14.01,2013-06-28 17:01:00,
2013-06-28 13:03:00,76.9,52.8,29.60,NNW,330,9.2,9.5,43,0.00,,,0.00,VWS V14.01,2013-06-28 17:03:00,
2013-06-28 13:04:00,76.0,48.3,29.60,NW,307,12.4,12.4,38,0.00,,,0.00,VWS V14.01,2013-06-28 17:04:00,
2013-06-28 13:06:00,75.8,48.2,29.60,NW,304,11.2,11.2,38,0.00,,,0.00,VWS V14.01,2013-06-28 17:06:00,
2013-06-28 13:07:00,76.0,49.6,29.59,WNW,302,11.2,11.2,39,0.00,,,0.00,VWS V14.01,2013-06-28 17:07:00,
2013-06-28 13:08:00,76.1,48.4,29.59,NW,319,11.9,12.4,38,0.00,,,0.00,VWS V14.01,2013-06-28 17:08:00,
2013-06-28 13:10:00,76.5,51.4,29.60,NNW,330,12.4,12.4,41,0.00,,,0.00,VWS V14.01,2013-06-28 17:10:00,
2013-06-28 13:11:00,75.9,50.4,29.60,WNW,302,13.1,13.1,41,0.00,,,0.00,VWS V14.01,2013-06-28 17:11:00,
2013-06-28 13:12:00,76.0,48.9,29.60,WNW,289,12.6,12.6,39,0.00,,,0.00,VWS V14.01,2013-06-28 17:12:00,
2013-06-28 13:13:00,75.9,48.1,29.60,WNW,292,15.7,15.7,37,0.00,,,0.00,VWS V14.01,2013-06-28 17:13:00,
2013-06-28 13:14:00,75.9,48.1,29.60,WNW,292,15.7,15.7,37,0.00,,,0.00,VWS V14.01,2013-06-28 17:14:00,
2013-06-28 13:15:00,75.5,46.8,29.59,WNW,284,16.9,16.9,36,0.00,,,0.00,VWS V14.01,2013-06-28 17:15:00,
2013-06-28 13:17:00,75.6,50.0,29.60,WNW,298,11.6,14.3,41,0.00,,,0.00,VWS V14.01,2013-06-28 17:17:00,
2013-06-28 13:19:00,75.2,51.1,29.60,WNW,286,12.1,13.1,43,0.00,,,0.00,VWS V14.01,2013-06-28 17:19:00,
2013-06-28 13:20:00,75.2,51.1,29.60,WNW,286,12.1,13.1,43,0.00,,,0.00,VWS V14.01,2013-06-28 17:20:00,
2013-06-28 13:23:00,76.2,50.4,29.59,WNW,301,16.0,16.0,40,0.00,,,0.00,VWS V14.01,2013-06-28 17:23:00,
2013-06-28 13:25:00,76.0,51.8,29.60,NW,320,11.6,11.7,43,0.00,,,0.00,VWS V14.01,2013-06-28 17:25:00,
2013-06-28 13:26:00,76.5,51.6,29.60,NW,322,12.1,13.5,42,0.00,,,0.00,VWS V14.01,2013-06-28 17:26:00,
2013-06-28 13:28:00,76.2,50.0,29.59,NW,312,10.9,12.4,40,0.00,,,0.00,VWS V14.01,2013-06-28 17:28:00,
2013-06-28 13:30:00,76.0,46.8,29.59,NNW,331,16.7,16.7,36,0.00,,,0.00,VWS V14.01,2013-06-28 17:30:00,
2013-06-28 13:31:00,76.7,52.1,29.59,NNW,330,12.9,16.7,42,0.00,,,0.00,VWS V14.01,2013-06-28 17:31:00,
2013-06-28 13:33:00,77.3,51.5,29.59,West,266,13.5,13.5,41,0.00,,,0.00,VWS V14.01,2013-06-28 17:33:00,
2013-06-28 13:36:00,77.1,52.0,29.59,NNW,330,12.9,12.9,42,0.00,,,0.00,VWS V14.01,2013-06-28 17:36:00,
2013-06-28 13:38:00,75.6,48.3,29.59,WNW,293,12.6,17.4,38,0.00,,,0.00,VWS V14.01,2013-06-28 17:38:00,
2013-06-28 13:39:00,75.6,48.3,29.59,WNW,293,12.6,17.4,38,0.00,,,0.00,VWS V14.01,2013-06-28 17:39:00,
2013-06-28 13:42:00,76.6,50.8,29.58,WNW,297,9.0,12.1,40,0.00,,,0.00,VWS V14.01,2013-06-28 17:42:00,
2013-06-28 13:44:00,76.6,48.2,29.58,WNW,287,11.9,12.4,37,0.00,,,0.00,VWS V14.01,2013-06-28 17:44:00,
2013-06-28 13:45:00,76.7,50.7,29.58,West,266,12.1,12.1,40,0.00,,,0.00,VWS V14.01,2013-06-28 17:45:00,
2013-06-28 13:46:00,77.8,57.2,29.59,NW,305,9.2,12.1,49,0.00,,,0.00,VWS V14.01,2013-06-28 17:46:00,
2013-06-28 13:47:00,76.7,51.0,29.59,West,272,14.8,14.8,41,0.00,,,0.00,VWS V14.01,2013-06-28 17:47:00,
2013-06-28 13:48:00,76.6,50.8,29.59,WNW,283,14.6,14.8,40,0.00,,,0.00,VWS V14.01,2013-06-28 17:48:00,
2013-06-28 13:51:00,77.2,51.8,29.58,West,271,9.9,9.9,41,0.00,,,0.00,VWS V14.01,2013-06-28 17:51:00,
2013-06-28 13:52:00,77.1,48.1,29.58,NW,311,17.0,17.0,36,0.00,,,0.00,VWS V14.01,2013-06-28 17:52:00,
2013-06-28 13:53:00,77.3,50.0,29.58,NNW,336,13.5,17.0,38,0.00,,,0.00,VWS V14.01,2013-06-28 17:53:00,
2013-06-28 13:54:00,76.8,49.6,29.58,NW,307,12.8,13.5,38,0.00,,,0.00,VWS V14.01,2013-06-28 17:54:00,
2013-06-28 13:57:00,77.3,49.2,29.59,NW,305,11.9,11.9,37,0.00,,,0.00,VWS V14.01,2013-06-28 17:57:00,
2013-06-28 13:58:00,78.0,51.9,29.59,NNW,346,7.5,11.9,40,0.00,,,0.00,VWS V14.01,2013-06-28 17:58:00,
2013-06-28 14:00:00,76.9,49.3,29.58,NW,318,17.6,17.6,38,0.00,,,0.00,VWS V14.01,2013-06-28 18:00:00,
2013-06-28 14:01:00,76.7,48.0,29.58,NW,310,11.6,17.6,36,0.00,,,0.00,VWS V14.01,2013-06-28 18:01:00,
2013-06-28 14:03:00,77.7,48.2,29.58,NNW,342,11.9,11.9,35,0.00,,,0.00,VWS V14.01,2013-06-28 18:03:00,
2013-06-28 14:04:00,77.4,49.9,29.58,NW,305,12.9,12.9,38,0.00,,,0.00,VWS V14.01,2013-06-28 18:04:00,
2013-06-28 14:07:00,76.8,49.6,29.57,NW,310,14.1,14.1,38,0.00,,,0.00,VWS V14.01,2013-06-28 18:07:00,
2013-06-28 14:09:00,77.5,53.3,29.57,WNW,300,10.0,12.9,43,0.00,,,0.00,VWS V14.01,2013-06-28 18:09:00,
2013-06-28 14:10:00,77.3,52.0,29.57,WNW,297,15.3,15.3,41,0.00,,,0.00,VWS V14.01,2013-06-28 18:10:00,
2013-06-28 14:11:00,76.9,50.2,29.57,NNW,346,12.6,12.6,39,0.00,,,0.00,VWS V14.01,2013-06-28 18:11:00,
2013-06-28 14:12:00,76.4,50.0,29.57,NW,321,10.2,13.8,40,0.00,,,0.00,VWS V14.01,2013-06-28 18:12:00,
2013-06-28 14:13:00,76.5,51.3,29.57,NNW,331,8.8,10.2,41,0.00,,,0.00,VWS V14.01,2013-06-28 18:13:00,
2013-06-28 14:15:00,77.5,51.4,29.57,NW,309,11.2,11.2,40,0.00,,,0.00,VWS V14.01,2013-06-28 18:15:00,
2013-06-28 14:16:00,76.8,48.8,29.57,WSW,253,9.9,10.7,37,0.00,,,0.00,VWS V14.01,2013-06-28 18:16:00,
2013-06-28 14:19:00,76.3,48.6,29.57,WNW,300,14.1,14.1,38,0.00,,,0.00,VWS V14.01,2013-06-28 18:19:00,
2013-06-28 14:21:00,75.9,50.9,29.57,West,275,11.2,13.6,42,0.00,,,0.00,VWS V14.01,2013-06-28 18:21:00,
2013-06-28 14:22:00,77.1,49.6,29.57,NW,316,13.8,13.8,38,0.00,,,0.00,VWS V14.01,2013-06-28 18:22:00,
2013-06-28 14:23:00,75.9,51.9,29.57,WNW,297,8.7,13.8,43,0.00,,,0.00,VWS V14.01,2013-06-28 18:23:00,
2013-06-28 14:25:00,76.7,52.8,29.57,NW,309,7.6,10.7,44,0.00,,,0.00,VWS V14.01,2013-06-28 18:25:00,
2013-06-28 14:26:00,77.7,55.9,29.57,West,271,8.5,8.5,47,0.00,,,0.00,VWS V14.01,2013-06-28 18:26:00,
2013-06-28 14:28:00,77.9,50.0,29.56,NW,306,10.2,10.2,38,0.00,,,0.00,VWS V14.01,2013-06-28 18:28:00,
2013-06-28 14:29:00,78.3,53.3,29.56,NW,310,8.0,10.2,42,0.00,,,0.00,VWS V14.01,2013-06-28 18:29:00,
2013-06-28 14:31:00,77.8,47.4,29.57,NNW,327,16.4,16.4,34,0.00,,,0.00,VWS V14.01,2013-06-28 18:31:00,
2013-06-28 14:34:00,77.7,46.0,29.56,West,276,12.1,12.1,33,0.00,,,0.00,VWS V14.01,2013-06-28 18:34:00,
2013-06-28 14:35:00,77.6,48.6,29.56,NNW,334,15.0,15.8,36,0.00,,,0.00,VWS V14.01,2013-06-28 18:35:00,
2013-06-28 14:36:00,77.7,49.2,29.56,NW,307,18.8,18.8,37,0.00,,,0.00,VWS V14.01,2013-06-28 18:36:00,
2013-06-28 14:37:00,77.2,48.1,29.56,NNW,327,16.2,18.8,36,0.00,,,0.00,VWS V14.01,2013-06-28 18:37:00,
2013-06-28 14:40:00,77.5,50.4,29.56,NW,310,14.3,14.3,39,0.00,,,0.00,VWS V14.01,2013-06-28 18:40:00,
2013-06-28 14:41:00,76.9,51.5,29.56,NNW,341,10.2,12.8,41,0.00,,,0.00,VWS V14.01,2013-06-28 18:41:00,
2013-06-28 14:42:00,77.1,48.0,29.56,NW,324,15.8,15.8,36,0.00,,,0.00,VWS V14.01,2013-06-28 18:42:00,
2013-06-28 14:43:00,77.7,48.3,29.56,NNW,327,13.1,13.1,35,0.00,,,0.00,VWS V14.01,2013-06-28 18:43:00,
2013-06-28 14:45:00,77.6,49.3,29.56,WNW,296,8.0,8.0,37,0.00,,,0.00,VWS V14.01,2013-06-28 18:45:00,
2013-06-28 14:46:00,78.1,50.0,29.56,NNW,339,6.3,8.0,37,0.00,,,0.00,VWS V14.01,2013-06-28 18:46:00,
2013-06-28 14:47:00,78.0,50.1,29.57,WNW,301,12.9,12.9,38,0.00,,,0.00,VWS V14.01,2013-06-28 18:47:00,
2013-06-28 14:49:00,77.4,46.5,29.56,WNW,302,16.5,16.5,34,0.00,,,0.00,VWS V14.01,2013-06-28 18:49:00,
2013-06-28 14:52:00,78.0,50.9,29.56,NW,325,9.9,15.2,39,0.00,,,0.00,VWS V14.01,2013-06-28 18:52:00,
2013-06-28 14:54:00,78.9,48.5,29.56,NNW,339,8.8,8.8,34,0.00,,,0.00,VWS V14.01,2013-06-28 18:54:00,
2013-06-28 14:57:00,78.1,50.0,29.56,NNW,330,11.1,11.1,37,0.00,,,0.00,VWS V14.01,2013-06-28 18:57:00,
2013-06-28 14:59:00,77.9,50.3,29.55,NW,317,15.3,15.3,38,0.00,,,0.00,VWS V14.01,2013-06-28 18:59:00,
2013-06-28 15:00:00,78.0,49.3,29.56,WNW,298,14.1,15.3,36,0.00,,,0.00,VWS V14.01,2013-06-28 19:00:00,
2013-06-28 15:02:00,78.2,50.5,29.56,NW,309,11.2,14.1,38,0.00,,,0.00,VWS V14.01,2013-06-28 19:02:00,
2013-06-28 15:03:00,78.7,48.8,29.55,NW,324,12.4,15.0,35,0.00,,,0.00,VWS V14.01,2013-06-28 19:03:00,
2013-06-28 15:04:00,78.1,45.5,29.56,NNW,330,12.3,12.3,32,0.00,,,0.00,VWS V14.01,2013-06-28 19:04:00,
2013-06-28 15:05:00,78.3,45.0,29.56,NNW,330,16.0,16.0,31,0.00,,,0.00,VWS V14.01,2013-06-28 19:05:00,
2013-06-28 15:07:00,77.0,45.9,29.55,NNW,346,10.0,15.5,33,0.00,,,0.00,VWS V14.01,2013-06-28 19:07:00,
2013-06-28 15:08:00,77.3,45.7,29.55,NNE,25,10.4,12.6,33,0.00,,,0.00,VWS V14.01,2013-06-28 19:08:00,
2013-06-28 15:10:00,75.7,49.5,29.56,WNW,283,10.5,11.4,40,0.00,,,0.00,VWS V14.01,2013-06-28 19:10:00,
2013-06-28 15:12:00,74.8,50.9,29.56,West,267,6.8,11.2,43,0.00,,,0.00,VWS V14.01,2013-06-28 19:12:00,
2013-06-28 15:13:00,76.4,50.5,29.56,NW,314,12.6,12.6,40,0.00,,,0.00,VWS V14.01,2013-06-28 19:13:00,
2013-06-28 15:15:00,75.8,51.1,29.55,WNW,298,10.9,13.6,42,0.00,,,0.00,VWS V14.01,2013-06-28 19:15:00,
2013-06-28 15:16:00,77.3,50.6,29.56,NW,304,13.3,13.3,39,0.00,,,0.00,VWS V14.01,2013-06-28 19:16:00,
2013-06-28 15:18:00,77.4,50.0,29.56,NW,305,12.8,14.3,38,0.00,,,0.00,VWS V14.01,2013-06-28 19:18:00,
2013-06-28 15:19:00,77.2,49.8,29.55,West,278,12.8,14.3,38,0.00,,,0.00,VWS V14.01,2013-06-28 19:19:00,
2013-06-28 15:20:00,77.3,48.9,29.55,WNW,296,16.4,16.5,37,0.00,,,0.00,VWS V14.01,2013-06-28 19:20:00,
2013-06-28 15:22:00,76.7,49.8,29.56,WSW,255,12.9,16.4,39,0.00,,,0.00,VWS V14.01,2013-06-28 19:22:00,
2013-06-28 15:24:00,77.4,48.4,29.55,NW,311,12.4,12.4,36,0.00,,,0.00,VWS V14.01,2013-06-28 19:24:00,
2013-06-28 15:25:00,76.5,49.9,29.55,West,280,14.1,14.1,39,0.00,,,0.00,VWS V14.01,2013-06-28 19:25:00,
2013-06-28 15:27:00,76.9,51.2,29.56,NW,307,11.9,11.9,41,0.00,,,0.00,VWS V14.01,2013-06-28 19:27:00,
2013-06-28 15:28:00,76.6,52.8,29.56,WNW,300,8.3,11.9,44,0.00,,,0.00,VWS V14.01,2013-06-28 19:28:00,
2013-06-28 15:29:00,76.4,50.5,29.56,WNW,288,13.3,13.3,40,0.00,,,0.00,VWS V14.01,2013-06-28 19:29:00,
2013-06-28 15:30:00,77.0,50.8,29.55,WNW,297,14.3,14.3,40,0.00,,,0.00,VWS V14.01,2013-06-28 19:30:00,
2013-06-28 15:33:00,76.9,49.3,29.55,WNW,303,17.4,18.8,38,0.00,,,0.00,VWS V14.01,2013-06-28 19:33:00,
2013-06-28 15:35:00,75.7,50.0,29.55,West,275,11.4,11.9,40,0.00,,,0.00,VWS V14.01,2013-06-28 19:35:00,
2013-06-28 15:37:00,74.9,48.7,29.55,NW,318,15.8,15.8,40,0.00,,,0.00,VWS V14.01,2013-06-28 19:37:00,
2013-06-28 15:40:00,64.3,49.3,29.56,WNW,302,18.1,20.5,58,0.00,,,0.00,VWS V14.01,2013-06-28 19:40:00,
2013-06-28 15:41:00,64.8,49.7,29.57,WNW,301,11.7,14.6,58,0.00,,,0.00,VWS V14.01,2013-06-28 19:41:00,
2013-06-28 15:42:00,65.0,49.7,29.57,NW,313,12.1,12.1,58,0.00,,,0.00,VWS V14.01,2013-06-28 19:42:00,
2013-06-28 15:45:00,66.7,51.8,29.56,WNW,284,15.3,18.8,59,0.00,,,0.00,VWS V14.01,2013-06-28 19:45:00,
2013-06-28 15:46:00,67.7,50.3,29.56,West,275,12.8,12.8,54,0.04,,,0.04,VWS V14.01,2013-06-28 19:46:00,
2013-06-28 15:47:00,67.5,51.3,29.55,West,277,8.5,14.5,56,0.04,,,0.04,VWS V14.01,2013-06-28 19:47:00,
2013-06-28 15:50:00,68.2,51.1,29.56,NW,313,8.3,8.3,54,0.04,,,0.04,VWS V14.01,2013-06-28 19:50:00,
2013-06-28 15:51:00,69.6,49.3,29.56,WNW,289,8.3,8.3,48,0.04,,,0.04,VWS V14.01,2013-06-28 19:51:00,
2013-06-28 15:53:00,68.5,52.8,29.56,WNW,293,3.5,5.9,57,0.04,,,0.04,VWS V14.01,2013-06-28 19:53:00,
2013-06-28 15:55:00,68.5,54.3,29.56,WNW,293,3.0,3.4,61,0.04,,,0.04,VWS V14.01,2013-06-28 19:55:00,
2013-06-28 15:58:00,70.0,55.0,29.57,North,3,2.2,2.2,59,0.04,,,0.04,VWS V14.01,2013-06-28 19:58:00,
2013-06-28 15:59:00,70.3,53.4,29.56,NW,313,1.6,1.6,55,0.04,,,0.04,VWS V14.01,2013-06-28 19:59:00,
2013-06-28 16:00:00,70.3,54.4,29.57,North,6,0.0,1.6,57,0.04,,,0.04,VWS V14.01,2013-06-28 20:00:00,
2013-06-28 16:01:00,70.6,57.8,29.56,North,7,0.0,0.0,64,0.04,,,0.04,VWS V14.01,2013-06-28 20:01:00,
2013-06-28 16:04:00,71.2,56.2,29.56,NNE,31,0.0,0.0,59,0.04,,,0.04,VWS V14.01,2013-06-28 20:04:00,
2013-06-28 16:05:00,71.5,55.8,29.56,NNE,31,0.0,0.0,58,0.04,,,0.04,VWS V14.01,2013-06-28 20:05:00,
2013-06-28 16:06:00,72.0,57.7,29.56,NNE,31,0.0,0.0,61,0.04,,,0.04,VWS V14.01,2013-06-28 20:06:00,
2013-06-28 16:09:00,72.1,54.9,29.56,NNW,339,0.0,0.0,55,0.04,,,0.04,VWS V14.01,2013-06-28 20:09:00,
2013-06-28 16:10:00,72.4,53.3,29.56,ENE,72,1.0,1.0,51,0.04,,,0.04,VWS V14.01,2013-06-28 20:10:00,
2013-06-28 16:11:00,72.5,51.7,29.56,NNE,26,0.0,1.0,48,0.04,,,0.04,VWS V14.01,2013-06-28 20:11:00,
2013-06-28 16:12:00,72.5,54.0,29.55,NE,49,2.8,2.8,52,0.04,,,0.04,VWS V14.01,2013-06-28 20:12:00,
2013-06-28 16:13:00,72.1,54.6,29.55,NW,316,1.0,1.0,54,0.04,,,0.04,VWS V14.01,2013-06-28 20:13:00,
2013-06-28 16:15:00,70.7,56.8,29.56,NNW,341,3.4,3.4,61,0.04,,,0.04,VWS V14.01,2013-06-28 20:15:00,
2013-06-28 16:16:00,70.7,56.8,29.56,NNW,341,3.4,3.4,61,0.04,,,0.04,VWS V14.01,2013-06-28 20:16:00,
2013-06-28 16:17:00,71.5,56.7,29.56,NW,310,3.0,3.5,59,0.04,,,0.04,VWS V14.01,2013-06-28 20:17:00,
2013-06-28 16:20:00,72.0,58.4,29.56,NE,47,5.2,7.8,62,0.04,,,0.04,VWS V14.01,2013-06-28 20:20:00,
2013-06-28 16:21:00,72.0,56.4,29.56,NNE,27,8.0,8.0,58,0.04,,,0.04,VWS V14.01,2013-06-28 20:21:00,
2013-06-28 16:22:00,72.0,56.1,29.56,NW,309,3.5,8.0,57,0.04,,,0.04,VWS V14.01,2013-06-28 20:22:00,
2013-06-28 16:23:00,73.6,55.4,29.56,WNW,286,1.6,2.2,53,0.04,,,0.04,VWS V14.01,2013-06-28 20:23:00,
2013-06-28 16:26:00,74.8,57.0,29.56,NE,55,2.3,2.3,54,0.04,,,0.04,VWS V14.01,2013-06-28 20:26:00,
2013-06-28 16:27:00,75.7,57.5,29.56,NE,40,1.0,2.3,53,0.04,,,0.04,VWS V14.01,2013-06-28 20:27:00,
2013-06-28 16:28:00,75.2,56.9,29.56,NE,38,3.2,3.2,53,0.04,,,0.04,VWS V14.01,2013-06-28 20:28:00,
2013-06-28 16:29:00,73.8,54.3,29.56,NE,43,2.3,2.7,51,0.04,,,0.04,VWS V14.01,2013-06-28 20:29:00,
2013-06-28 16:32:00,72.9,53.0,29.56,North,10,3.4,6.1,50,0.04,,,0.04,VWS V14.01,2013-06-28 20:32:00,
2013-06-28 16:34:00,72.4,52.4,29.56,NW,323,1.3,2.7,49,0.04,,,0.04,VWS V14.01,2013-06-28 20:34:00,
2013-06-28 16:35:00,71.9,51.4,29.56,NE,40,4.7,4.7,48,0.04,,,0.04,VWS V14.01,2013-06-28 20:35:00,
2013-06-28 16:37:00,71.6,51.5,29.56,North,349,2.5,3.7,49,0.04,,,0.04,VWS V14.01,2013-06-28 20:37:00,
2013-06-28 16:38:00,71.1,51.8,29.56,WNW,294,0.0,2.5,51,0.04,,,0.04,VWS V14.01,2013-06-28 20:38:00,
2013-06-28 16:39:00,71.4,52.2,29.56,NE,43,1.3,1.3,51,0.04,,,0.04,VWS V14.01,2013-06-28 20:39:00,
2013-06-28 16:40:00,71.0,51.9,29.56,NW,317,5.9,5.9,51,0.04,,,0.04,VWS V14.01,2013-06-28 20:40:00,
2013-06-28 16:42:00,70.7,52.4,29.56,NW,326,5.6,5.6,52,0.04,,,0.04,VWS V14.01,2013-06-28 20:42:00,
2013-06-28 16:44:00,70.6,54.3,29.57,West,276,3.9,3.9,56,0.04,,,0.04,VWS V14.01,2013-06-28 20:44:00,
2013-06-28 16:45:00,71.2,56.5,29.57,West,271,4.4,4.4,60,0.04,,,0.04,VWS V14.01,2013-06-28 20:45:00,
2013-06-28 16:46:00,71.1,53.4,29.57,WNW,290,4.0,5.9,53,0.04,,,0.04,VWS V14.01,2013-06-28 20:46:00,
2013-06-28 16:48:00,71.1,53.9,29.56,NW,307,2.8,3.5,55,0.00,,,0.04,VWS V14.01,2013-06-28 20:48:00,
2013-06-28 16:49:00,71.0,53.9,29.57,West,271,0.0,2.8,55,0.00,,,0.04,VWS V14.01,2013-06-28 20:49:00,
2013-06-28 16:51:00,71.2,53.3,29.56,South,188,1.0,1.0,53,0.00,,,0.04,VWS V14.01,2013-06-28 20:51:00,
2013-06-28 16:52:00,71.5,52.6,29.56,South,182,4.0,4.4,51,0.00,,,0.04,VWS V14.01,2013-06-28 20:52:00,
2013-06-28 16:53:00,72.0,53.1,29.55,SSW,207,0.0,1.3,51,0.00,,,0.04,VWS V14.01,2013-06-28 20:53:00,
2013-06-28 16:55:00,72.3,54.6,29.56,North,5,0.0,0.0,54,0.00,,,0.04,VWS V14.01,2013-06-28 20:55:00,
2013-06-28 16:56:00,71.7,52.4,29.57,East,98,3.0,3.0,51,0.00,,,0.04,VWS V14.01,2013-06-28 20:56:00,
2013-06-28 16:58:00,71.8,52.8,29.57,NE,41,2.5,3.5,51,0.00,,,0.04,VWS V14.01,2013-06-28 20:58:00,
2013-06-28 16:59:00,71.3,49.6,29.57,ENE,75,4.0,4.0,46,0.00,,,0.04,VWS V14.01,2013-06-28 20:59:00,
2013-06-28 17:01:00,71.4,53.2,29.57,NE,48,3.7,4.0,53,0.00,,,0.04,VWS V14.01,2013-06-28 21:01:00,
2013-06-28 17:02:00,71.4,53.2,29.57,NE,48,3.7,4.0,53,0.00,,,0.04,VWS V14.01,2013-06-28 21:02:00,
2013-06-28 17:03:00,71.8,54.7,29.56,ENE,72,2.0,2.0,55,0.00,,,0.04,VWS V14.01,2013-06-28 21:03:00,
2013-06-28 17:05:00,71.7,53.4,29.57,NE,51,3.4,3.4,53,0.00,,,0.04,VWS V14.01,2013-06-28 21:05:00,
2013-06-28 17:07:00,71.9,54.7,29.57,NNE,15,3.2,3.2,55,0.00,,,0.04,VWS V14.01,2013-06-28 21:07:00,
2013-06-28 17:08:00,71.3,56.7,29.57,NE,42,0.0,3.2,60,0.00,,,0.04,VWS V14.01,2013-06-28 21:08:00,
2013-06-28 17:09:00,71.1,56.5,29.56,NNW,327,1.0,1.6,60,0.00,,,0.04,VWS V14.01,2013-06-28 21:09:00,
2013-06-28 17:10:00,71.0,56.0,29.56,NNW,327,1.3,2.2,59,0.00,,,0.04,VWS V14.01,2013-06-28 21:10:00,
2013-06-28 17:12:00,71.4,54.7,29.56,WNW,299,4.9,4.9,56,0.00,,,0.04,VWS V14.01,2013-06-28 21:12:00,
2013-06-28 17:13:00,71.3,55.9,29.56,NW,321,4.0,4.0,58,0.00,,,0.04,VWS V14.01,2013-06-28 21:13:00,
2013-06-28 17:14:00,71.2,56.5,29.56,NW,313,1.1,4.0,60,0.00,,,0.04,VWS V14.01,2013-06-28 21:14:00,
2013-06-28 17:15:00,71.3,56.2,29.56,NW,324,2.8,2.8,59,0.00,,,0.04,VWS V14.01,2013-06-28 21:15:00,
2013-06-28 17:18:00,71.6,57.6,29.55,NW,312,3.2,3.2,61,0.00,,,0.04,VWS V14.01,2013-06-28 21:18:00,
2013-06-28 17:19:00,71.9,57.6,29.55,NW,318,1.8,2.8,61,0.00,,,0.04,VWS V14.01,2013-06-28 21:19:00,
2013-06-28 17:20:00,72.2,57.8,29.55,NW,319,1.6,1.8,61,0.00,,,0.04,VWS V14.01,2013-06-28 21:20:00,
2013-06-28 17:22:00,71.9,58.4,29.56,NW,314,3.0,4.2,62,0.00,,,0.04,VWS V14.01,2013-06-28 21:22:00,
2013-06-28 17:24:00,72.2,57.5,29.56,NNW,327,5.1,5.1,60,0.00,,,0.04,VWS V14.01,2013-06-28 21:24:00,
2013-06-28 17:25:00,72.1,58.4,29.55,NW,310,4.5,5.1,62,0.00,,,0.04,VWS V14.01,2013-06-28 21:25:00,
2013-06-28 17:26:00,72.4,59.1,29.56,WNW,300,3.7,4.2,63,0.00,,,0.04,VWS V14.01,2013-06-28 21:26:00,
2013-06-28 17:27:00,72.5,58.1,29.56,WNW,301,5.6,5.6,61,0.00,,,0.04,VWS V14.01,2013-06-28 21:27:00,
2013-06-28 17:28:00,72.5,58.1,29.56,WNW,301,5.6,5.6,61,0.00,,,0.04,VWS V14.01,2013-06-28 21:28:00,
2013-06-28 17:30:00,72.9,59.8,29.56,NW,326,5.1,5.1,63,0.00,,,0.04,VWS V14.01,2013-06-28 21:30:00,
2013-06-28 17:31:00,73.0,59.4,29.56,WNW,297,5.2,5.6,62,0.00,,,0.04,VWS V14.01,2013-06-28 21:31:00,
2013-06-28 17:33:00,73.3,58.0,29.56,WNW,300,6.9,6.9,59,0.00,,,0.04,VWS V14.01,2013-06-28 21:33:00,
2013-06-28 17:34:00,73.3,58.8,29.56,West,273,5.4,6.9,60,0.00,,,0.04,VWS V14.01,2013-06-28 21:34:00,
2013-06-28 17:35:00,73.7,58.4,29.56,West,275,7.1,7.1,59,0.00,,,0.04,VWS V14.01,2013-06-28 21:35:00,
2013-06-28 17:37:00,74.4,57.0,29.56,WNW,283,6.8,6.8,55,0.00,,,0.04,VWS V14.01,2013-06-28 21:37:00,
2013-06-28 17:39:00,74.3,57.8,29.56,WNW,302,7.1,8.0,56,0.00,,,0.04,VWS V14.01,2013-06-28 21:39:00,
2013-06-28 17:40:00,74.8,55.3,29.56,NW,304,8.0,10.2,51,0.00,,,0.04,VWS V14.01,2013-06-28 21:40:00,
2013-06-28 17:42:00,75.3,51.8,29.56,NW,311,10.7,10.7,44,0.00,,,0.04,VWS V14.01,2013-06-28 21:42:00,
2013-06-28 17:43:00,75.2,52.0,29.56,WNW,283,9.9,10.7,44,0.00,,,0.04,VWS V14.01,2013-06-28 21:43:00,
2013-06-28 17:44:00,75.2,54.7,29.56,WNW,302,6.8,9.9,49,0.00,,,0.04,VWS V14.01,2013-06-28 21:44:00,
2013-06-28 17:46:00,75.6,55.2,29.56,WNW,293,6.8,8.5,49,0.00,,,0.04,VWS V14.01,2013-06-28 21:46:00,
2013-06-28 17:47:00,76.1,53.6,29.57,WNW,300,9.2,9.3,46,0.00,,,0.04,VWS V14.01,2013-06-28 21:47:00,
2013-06-28 17:48:00,76.4,53.3,29.57,NW,310,9.0,9.0,45,0.00,,,0.04,VWS V14.01,2013-06-28 21:48:00,
2013-06-28 17:50:00,76.3,52.5,29.57,NW,314,9.3,11.7,44,0.00,,,0.04,VWS V14.01,2013-06-28 21:50:00,
2013-06-28 17:51:00,76.3,52.0,29.57,WNW,290,11.2,12.3,43,0.00,,,0.04,VWS V14.01,2013-06-28 21:51:00,
2013-06-28 17:52:00,76.3,55.3,29.58,WNW,295,8.5,11.2,48,0.00,,,0.04,VWS V14.01,2013-06-28 21:52:00,
2013-06-28 17:53:00,78.2,52.8,29.57,NNW,341,6.3,7.3,41,0.00,,,0.04,VWS V14.01,2013-06-28 21:53:00,
2013-06-28 17:55:00,77.4,49.3,29.57,NW,310,13.3,13.3,37,0.00,,,0.04,VWS V14.01,2013-06-28 21:55:00,
2013-06-28 17:57:00,77.2,49.7,29.56,NW,313,15.7,15.7,38,0.00,,,0.04,VWS V14.01,2013-06-28 21:57:00,
2013-06-28 17:59:00,76.7,48.0,29.56,NW,314,16.5,16.5,36,0.00,,,0.04,VWS V14.01,2013-06-28 21:59:00,
2013-06-28 18:02:00,77.5,47.6,29.57,NW,323,12.4,12.4,35,0.00,,,0.04,VWS V14.01,2013-06-28 22:02:00,
2013-06-28 18:03:00,76.0,47.1,29.59,NW,326,15.5,15.5,36,0.00,,,0.04,VWS V14.01,2013-06-28 22:03:00,
2013-06-28 18:04:00,77.0,49.0,29.58,NW,310,5.4,15.5,37,0.00,,,0.04,VWS V14.01,2013-06-28 22:04:00,
2013-06-28 18:05:00,76.8,47.5,29.57,WNW,294,10.4,14.8,36,0.00,,,0.04,VWS V14.01,2013-06-28 22:05:00,
2013-06-28 18:08:00,76.9,49.5,29.57,NW,314,10.4,12.4,38,0.00,,,0.04,VWS V14.01,2013-06-28 22:08:00,
2013-06-28 18:10:00,76.4,50.0,29.57,NW,316,11.2,15.5,39,0.00,,,0.04,VWS V14.01,2013-06-28 22:10:00,
2013-06-28 18:11:00,75.9,49.4,29.57,NW,313,11.1,11.2,39,0.00,,,0.04,VWS V14.01,2013-06-28 22:11:00,
2013-06-28 18:12:00,75.7,49.2,29.57,WNW,298,12.4,12.4,39,0.00,,,0.04,VWS V14.01,2013-06-28 22:12:00,
2013-06-28 18:13:00,75.2,49.5,29.57,NW,310,11.9,11.9,40,0.00,,,0.04,VWS V14.01,2013-06-28 22:13:00,
2013-06-28 18:14:00,75.7,49.6,29.57,NNW,330,9.2,11.9,40,0.00,,,0.04,VWS V14.01,2013-06-28 22:14:00,
2013-06-28 18:15:00,74.7,50.1,29.56,NW,320,10.0,10.0,42,0.00,,,0.04,VWS V14.01,2013-06-28 22:15:00,
2013-06-28 18:17:00,74.5,49.6,29.57,WNW,291,10.2,12.3,42,0.00,,,0.04,VWS V14.01,2013-06-28 22:17:00,
2013-06-28 18:18:00,74.4,50.6,29.56,WNW,301,10.4,10.4,43,0.00,,,0.04,VWS V14.01,2013-06-28 22:18:00,
2013-06-28 18:20:00,73.7,50.3,29.57,NW,305,8.3,9.5,44,0.00,,,0.04,VWS V14.01,2013-06-28 22:20:00,
2013-06-28 18:21:00,74.4,50.3,29.57,NW,320,8.8,10.0,43,0.00,,,0.04,VWS V14.01,2013-06-28 22:21:00,
2013-06-28 18:23:00,74.3,49.7,29.56,NNW,340,10.5,10.5,42,0.00,,,0.04,VWS V14.01,2013-06-28 22:23:00,
2013-06-28 18:24:00,73.8,49.0,29.57,WNW,298,10.4,10.4,42,0.00,,,0.04,VWS V14.01,2013-06-28 22:24:00,
2013-06-28 18:27:00,73.8,47.5,29.57,NW,314,14.3,14.3,39,0.00,,,0.04,VWS V14.01,2013-06-28 22:27:00,
2013-06-28 18:28:00,74.1,47.7,29.58,NNW,327,13.8,14.3,39,0.00,,,0.04,VWS V14.01,2013-06-28 22:28:00,
2013-06-28 18:29:00,74.3,49.2,29.57,NW,311,10.4,13.8,41,0.00,,,0.04,VWS V14.01,2013-06-28 22:29:00,
2013-06-28 18:31:00,74.7,48.1,29.57,NW,316,8.0,9.5,39,0.00,,,0.04,VWS V14.01,2013-06-28 22:31:00,
2013-06-28 18:33:00,75.0,47.8,29.57,NW,322,13.6,13.6,38,0.00,,,0.04,VWS V14.01,2013-06-28 22:33:00,
2013-06-28 18:34:00,74.6,47.9,29.57,WNW,303,11.4,13.6,39,0.00,,,0.04,VWS V14.01,2013-06-28 22:34:00,
2013-06-28 18:35:00,75.4,47.4,29.58,NW,312,7.5,11.4,37,0.00,,,0.04,VWS V14.01,2013-06-28 22:35:00,
2013-06-28 18:36:00,75.0,47.9,29.57,NW,326,10.4,10.4,38,0.00,,,0.04,VWS V14.01,2013-06-28 22:36:00,
2013-06-28 18:39:00,75.6,48.6,29.58,WNW,303,10.2,10.2,39,0.00,,,0.04,VWS V14.01,2013-06-28 22:39:00,
2013-06-28 18:40:00,75.8,49.6,29.57,NW,324,9.7,10.2,40,0.00,,,0.04,VWS V14.01,2013-06-28 22:40:00,
2013-06-28 18:41:00,75.8,49.6,29.57,NW,324,9.7,10.2,40,0.00,,,0.04,VWS V14.01,2013-06-28 22:41:00,
2013-06-28 18:42:00,76.0,48.9,29.57,NW,315,7.6,8.5,38,0.00,,,0.04,VWS V14.01,2013-06-28 22:42:00,
2013-06-28 18:44:00,75.9,48.6,29.58,NW,310,8.5,13.5,38,0.00,,,0.04,VWS V14.01,2013-06-28 22:44:00,
2013-06-28 18:46:00,76.4,50.8,29.58,NW,309,5.4,9.2,41,0.00,,,0.04,VWS V14.01,2013-06-28 22:46:00,
2013-06-28 18:47:00,75.9,48.4,29.57,NW,321,9.3,9.3,38,0.00,,,0.04,VWS V14.01,2013-06-28 22:47:00,
2013-06-28 18:48:00,74.9,49.6,29.57,NW,313,11.6,11.9,41,0.00,,,0.04,VWS V14.01,2013-06-28 22:48:00,
2013-06-28 18:49:00,75.2,48.6,29.57,NW,304,11.4,12.8,39,0.00,,,0.04,VWS V14.01,2013-06-28 22:49:00,
2013-06-28 18:51:00,74.3,49.4,29.57,NW,313,11.2,11.2,41,0.00,,,0.04,VWS V14.01,2013-06-28 22:51:00,
2013-06-28 18:52:00,74.6,49.6,29.58,NW,325,8.5,8.5,41,0.00,,,0.04,VWS V14.01,2013-06-28 22:52:00,
2013-06-28 18:54:00,74.1,49.9,29.57,NW,317,11.6,12.6,42,0.00,,,0.04,VWS V14.01,2013-06-28 22:54:00,
2013-06-28 18:55:00,74.3,49.8,29.57,NW,326,11.6,11.6,42,0.00,,,0.04,VWS V14.01,2013-06-28 22:55:00,
2013-06-28 18:56:00,75.1,49.5,29.58,NNW,335,11.1,11.6,41,0.00,,,0.04,VWS V14.01,2013-06-28 22:56:00,
2013-06-28 18:58:00,75.2,50.2,29.58,WNW,303,7.5,7.5,42,0.00,,,0.04,VWS V14.01,2013-06-28 22:58:00,
2013-06-28 18:59:00,75.0,50.0,29.59,West,281,9.5,9.5,41,0.00,,,0.04,VWS V14.01,2013-06-28 22:59:00,
2013-06-28 19:00:00,75.0,50.0,29.59,West,281,9.5,9.5,41,0.00,,,0.04,VWS V14.01,2013-06-28 23:00:00,
2013-06-28 19:01:00,75.6,50.7,29.57,North,5,10.5,10.5,42,0.00,,,0.04,VWS V14.01,2013-06-28 23:01:00,
2013-06-28 19:02:00,77.1,52.3,29.59,NNW,330,3.4,9.2,42,0.00,,,0.04,VWS V14.01,2013-06-28 23:02:00,
2013-06-28 19:03:00,76.2,47.7,29.58,NNW,336,15.5,15.5,37,0.00,,,0.04,VWS V14.01,2013-06-28 23:03:00,
2013-06-28 19:05:00,76.3,49.0,29.58,NW,323,9.2,9.2,38,0.00,,,0.04,VWS V14.01,2013-06-28 23:05:00,
2013-06-28 19:06:00,76.3,49.0,29.58,NW,323,9.2,9.2,38,0.00,,,0.04,VWS V14.01,2013-06-28 23:06:00,
2013-06-28 19:08:00,75.4,47.8,29.58,WNW,293,11.6,11.6,38,0.00,,,0.04,VWS V14.01,2013-06-28 23:08:00,
2013-06-28 19:11:00,76.2,48.6,29.59,NW,311,7.5,8.7,38,0.00,,,0.04,VWS V14.01,2013-06-28 23:11:00,
2013-06-28 19:13:00,76.9,47.9,29.59,ENE,78,4.5,6.1,36,0.00,,,0.04,VWS V14.01,2013-06-28 23:13:00,
2013-06-28 19:14:00,76.0,47.3,29.58,NNW,332,8.8,8.8,36,0.00,,,0.04,VWS V14.01,2013-06-28 23:14:00,
2013-06-28 19:17:00,76.9,48.8,29.58,NNW,335,6.4,6.4,37,0.00,,,0.04,VWS V14.01,2013-06-28 23:17:00,
2013-06-28 19:18:00,76.9,48.8,29.58,NNW,335,6.4,6.4,37,0.00,,,0.04,VWS V14.01,2013-06-28 23:18:00,
2013-06-28 19:19:00,76.9,48.8,29.58,NNW,335,6.4,6.4,37,0.00,,,0.04,VWS V14.01,2013-06-28 23:19:00,
2013-06-28 19:22:00,75.7,49.2,29.58,WNW,302,6.8,6.8,39,0.00,,,0.04,VWS V14.01,2013-06-28 23:22:00,
2013-06-28 19:23:00,76.1,48.0,29.58,NNW,329,8.3,8.3,37,0.00,,,0.04,VWS V14.01,2013-06-28 23:23:00,
2013-06-28 19:25:00,75.4,48.8,29.58,WNW,301,11.2,11.2,39,0.00,,,0.04,VWS V14.01,2013-06-28 23:25:00,
2013-06-28 19:26:00,78.5,50.3,29.58,North,9,3.5,9.0,37,0.00,,,0.04,VWS V14.01,2013-06-28 23:26:00,
2013-06-28 19:27:00,76.0,48.8,29.58,NNW,331,8.5,8.5,38,0.00,,,0.04,VWS V14.01,2013-06-28 23:27:00,
2013-06-28 19:28:00,76.0,48.8,29.58,NNW,331,8.5,8.5,38,0.00,,,0.04,VWS V14.01,2013-06-28 23:28:00,
2013-06-28 19:30:00,76.3,48.2,29.58,NW,319,6.8,8.8,37,0.00,,,0.04,VWS V14.01,2013-06-28 23:30:00,
2013-06-28 19:31:00,76.0,47.6,29.58,North,351,10.2,10.2,37,0.00,,,0.04,VWS V14.01,2013-06-28 23:31:00,
2013-06-28 19:34:00,76.6,48.4,29.58,NW,312,5.9,5.9,37,0.00,,,0.04,VWS V14.01,2013-06-28 23:34:00,
2013-06-28 19:35:00,76.1,48.7,29.58,NW,317,6.3,6.3,38,0.00,,,0.04,VWS V14.01,2013-06-28 23:35:00,
2013-06-28 19:36:00,75.4,45.9,29.58,WNW,302,8.1,8.1,35,0.00,,,0.04,VWS V14.01,2013-06-28 23:36:00,
2013-06-28 19:37:00,75.9,48.9,29.58,NNW,340,9.3,9.3,39,0.00,,,0.04,VWS V14.01,2013-06-28 23:37:00,
2013-06-28 19:40:00,75.4,48.2,29.57,NW,308,10.7,10.7,38,0.00,,,0.04,VWS V14.01,2013-06-28 23:40:00,
2013-06-28 19:41:00,75.5,48.1,29.58,NW,315,11.4,13.6,38,0.00,,,0.04,VWS V14.01,2013-06-28 23:41:00,
2013-06-28 19:42:00,75.3,46.3,29.58,NW,316,10.2,11.1,36,0.00,,,0.04,VWS V14.01,2013-06-28 23:42:00,
2013-06-28 19:44:00,75.2,47.8,29.58,NNW,344,8.5,14.5,38,0.00,,,0.04,VWS V14.01,2013-06-28 23:44:00,
2013-06-28 19:46:00,75.4,45.9,29.58,NW,323,14.0,14.0,35,0.00,,,0.04,VWS V14.01,2013-06-28 23:46:00,
2013-06-28 19:47:00,76.6,48.1,29.58,NW,326,4.7,10.9,37,0.00,,,0.04,VWS V14.01,2013-06-28 23:47:00,
2013-06-28 19:50:00,75.3,46.9,29.58,NW,305,8.7,9.0,36,0.00,,,0.04,VWS V14.01,2013-06-28 23:50:00,
2013-06-28 19:52:00,75.8,47.7,29.58,NW,326,8.1,9.5,37,0.00,,,0.04,VWS V14.01,2013-06-28 23:52:00,
2013-06-28 19:54:00,74.7,48.1,29.58,WNW,292,7.8,10.5,39,0.00,,,0.04,VWS V14.01,2013-06-28 23:54:00,
2013-06-28 19:56:00,74.6,47.2,29.58,NW,313,9.0,11.4,38,0.00,,,0.04,VWS V14.01,2013-06-28 23:56:00,
2013-06-28 19:58:00,74.2,47.4,29.58,NW,317,10.0,10.0,39,0.00,,,0.04,VWS V14.01,2013-06-28 23:58:00,
2013-06-28 19:59:00,74.3,47.4,29.58,NW,314,9.5,10.0,38,0.00,,,0.04,VWS V14.01,2013-06-28 23:59:00,
2013-06-28 20:01:00,72.5,48.2,29.59,NNW,337,5.9,5.9,42,0.00,,,0.04,VWS V14.01,2013-06-29 00:01:00,
2013-06-28 20:03:00,72.0,49.1,29.59,NW,313,5.2,5.2,44,0.00,,,0.04,VWS V14.01,2013-06-29 00:03:00,
2013-06-28 20:04:00,72.6,48.8,29.59,North,350,5.7,5.7,43,0.00,,,0.04,VWS V14.01,2013-06-29 00:04:00,
2013-06-28 20:05:00,73.9,49.2,29.58,NW,320,9.7,9.7,42,0.00,,,0.04,VWS V14.01,2013-06-29 00:05:00,
2013-06-28 20:06:00,73.2,48.9,29.59,NW,318,10.2,10.2,42,0.00,,,0.04,VWS V14.01,2013-06-29 00:06:00,
2013-06-28 20:08:00,73.0,48.9,29.59,NNW,344,7.6,7.6,43,0.00,,,0.04,VWS V14.01,2013-06-29 00:08:00,
2013-06-28 20:09:00,72.4,49.5,29.59,NW,312,7.8,7.8,44,0.00,,,0.04,VWS V14.01,2013-06-29 00:09:00,
2013-06-28 20:10:00,71.9,49.8,29.59,NW,314,7.5,7.8,46,0.00,,,0.04,VWS V14.01,2013-06-29 00:10:00,
2013-06-28 20:11:00,72.5,49.9,29.59,NNW,338,8.3,8.3,45,0.00,,,0.04,VWS V14.01,2013-06-29 00:11:00,
2013-06-28 20:13:00,73.0,50.5,29.59,NW,316,5.7,8.3,45,0.00,,,0.04,VWS V14.01,2013-06-29 00:13:00,
2013-06-28 20:14:00,72.6,49.9,29.59,NW,325,6.3,6.3,45,0.00,,,0.04,VWS V14.01,2013-06-29 00:14:00,
2013-06-28 20:15:00,71.7,50.0,29.58,NW,310,5.7,6.3,46,0.00,,,0.04,VWS V14.01,2013-06-29 00:15:00,
2013-06-28 20:17:00,72.5,50.1,29.59,NNW,336,4.7,6.4,45,0.00,,,0.04,VWS V14.01,2013-06-29 00:17:00,
2013-06-28 20:18:00,72.8,49.7,29.59,NW,326,4.5,5.7,44,0.00,,,0.04,VWS V14.01,2013-06-29 00:18:00,
2013-06-28 20:19:00,72.2,49.5,29.59,NW,317,3.5,3.5,45,0.00,,,0.04,VWS V14.01,2013-06-29 00:19:00,
2013-06-28 20:20:00,72.9,50.2,29.58,NNW,332,4.7,4.7,45,0.00,,,0.04,VWS V14.01,2013-06-29 00:20:00,
2013-06-28 20:23:00,72.8,49.3,29.59,NNW,344,3.7,4.4,43,0.00,,,0.04,VWS V14.01,2013-06-29 00:23:00,
2013-06-28 20:24:00,72.8,49.9,29.59,NNW,344,3.5,3.9,44,0.00,,,0.04,VWS V14.01,2013-06-29 00:24:00,
2013-06-28 20:27:00,72.3,49.7,29.59,NNW,330,3.0,4.9,45,0.00,,,0.04,VWS V14.01,2013-06-29 00:27:00,
2013-06-28 20:28:00,72.8,50.0,29.61,NW,325,3.2,3.2,45,0.00,,,0.04,VWS V14.01,2013-06-29 00:28:00,
2013-06-28 20:29:00,73.8,50.1,29.60,NNW,333,3.2,3.2,43,0.00,,,0.04,VWS V14.01,2013-06-29 00:29:00,
2013-06-28 20:30:00,73.7,49.9,29.60,NW,325,2.8,3.2,43,0.00,,,0.04,VWS V14.01,2013-06-29 00:30:00,
2013-06-28 20:32:00,73.6,48.7,29.59,WNW,292,3.7,3.7,41,0.00,,,0.04,VWS V14.01,2013-06-29 00:32:00,
2013-06-28 20:34:00,74.4,49.1,29.59,NW,321,0.0,1.8,41,0.00,,,0.04,VWS V14.01,2013-06-29 00:34:00,
2013-06-28 20:35:00,74.6,49.8,29.59,NNW,333,0.0,0.0,42,0.00,,,0.04,VWS V14.01,2013-06-29 00:35:00,
2013-06-28 20:36:00,73.7,48.5,29.60,NNW,332,0.0,0.0,41,0.00,,,0.04,VWS V14.01,2013-06-29 00:36:00,
2013-06-28 20:38:00,73.7,48.2,29.59,NNW,344,3.4,3.4,40,0.00,,,0.04,VWS V14.01,2013-06-29 00:38:00,
2013-06-28 20:39:00,73.8,48.5,29.59,NW,306,2.2,3.4,41,0.00,,,0.04,VWS V14.01,2013-06-29 00:39:00,
2013-06-28 20:40:00,73.7,48.3,29.59,NE,34,3.9,3.9,41,0.00,,,0.04,VWS V14.01,2013-06-29 00:40:00,
2013-06-28 20:41:00,74.8,49.6,29.59,NNE,18,0.0,0.0,41,0.00,,,0.04,VWS V14.01,2013-06-29 00:41:00,
2013-06-28 20:42:00,73.9,48.2,29.59,NNW,336,3.0,3.0,40,0.00,,,0.04,VWS V14.01,2013-06-29 00:42:00,
2013-06-28 20:43:00,73.1,47.7,29.59,North,349,2.8,3.0,41,0.00,,,0.04,VWS V14.01,2013-06-29 00:43:00,
2013-06-28 20:44:00,73.2,48.7,29.59,NNW,327,2.7,2.8,42,0.00,,,0.04,VWS V14.01,2013-06-29 00:44:00,
2013-06-28 20:46:00,72.6,48.9,29.59,NW,318,0.0,4.7,43,0.00,,,0.04,VWS V14.01,2013-06-29 00:46:00,
2013-06-28 20:48:00,72.2,48.5,29.59,NW,315,3.2,3.2,43,0.00,,,0.04,VWS V14.01,2013-06-29 00:48:00,
2013-06-28 20:49:00,72.2,48.5,29.59,NW,315,3.2,3.2,43,0.00,,,0.04,VWS V14.01,2013-06-29 00:49:00,
2013-06-28 20:50:00,73.2,49.5,29.60,NNE,20,0.0,1.0,43,0.00,,,0.04,VWS V14.01,2013-06-29 00:50:00,
2013-06-28 20:53:00,72.4,49.0,29.60,NE,50,7.5,7.5,44,0.00,,,0.04,VWS V14.01,2013-06-29 00:53:00,
2013-06-28 20:54:00,71.3,49.2,29.60,NE,52,6.9,7.5,46,0.00,,,0.04,VWS V14.01,2013-06-29 00:54:00,
2013-06-28 20:55:00,70.4,51.0,29.60,NNE,23,7.1,7.1,50,0.00,,,0.04,VWS V14.01,2013-06-29 00:55:00,
2013-06-28 20:58:00,69.7,52.7,29.60,ENE,78,5.4,6.1,55,0.00,,,0.04,VWS V14.01,2013-06-29 00:58:00,
2013-06-28 21:00:00,69.4,53.2,29.59,ENE,70,4.7,7.5,56,0.00,,,0.04,VWS V14.01,2013-06-29 01:00:00,
2013-06-28 21:01:00,69.5,52.2,29.60,ENE,69,3.2,5.4,54,0.00,,,0.04,VWS V14.01,2013-06-29 01:01:00,
2013-06-28 21:04:00,69.2,54.6,29.59,ENE,70,4.7,5.2,60,0.00,,,0.04,VWS V14.01,2013-06-29 01:04:00,
2013-06-28 21:05:00,69.3,54.6,29.60,NE,40,4.7,4.7,59,0.00,,,0.04,VWS V14.01,2013-06-29 01:05:00,
2013-06-28 21:06:00,69.2,54.6,29.60,NE,40,3.7,4.7,60,0.00,,,0.04,VWS V14.01,2013-06-29 01:06:00,
2013-06-28 21:07:00,69.1,54.7,29.59,NE,49,6.1,6.1,60,0.00,,,0.04,VWS V14.01,2013-06-29 01:07:00,
2013-06-28 21:09:00,68.9,55.3,29.60,NE,53,3.9,4.5,62,0.00,,,0.04,VWS V14.01,2013-06-29 01:09:00,
2013-06-28 21:10:00,68.8,55.7,29.61,NE,52,2.7,3.9,63,0.00,,,0.04,VWS V14.01,2013-06-29 01:10:00,
2013-06-28 21:12:00,68.5,56.2,29.60,NE,52,5.2,6.3,65,0.00,,,0.04,VWS V14.01,2013-06-29 01:12:00,
2013-06-28 21:14:00,68.4,56.6,29.60,NE,55,5.6,5.6,66,0.00,,,0.04,VWS V14.01,2013-06-29 01:14:00,
2013-06-28 21:15:00,68.3,56.6,29.60,ENE,63,6.6,6.6,66,0.00,,,0.04,VWS V14.01,2013-06-29 01:15:00,
2013-06-28 21:16:00,68.2,56.6,29.60,NE,49,6.1,6.1,66,0.00,,,0.04,VWS V14.01,2013-06-29 01:16:00,
2013-06-28 21:17:00,68.1,56.7,29.60,NE,53,5.6,6.1,67,0.00,,,0.04,VWS V14.01,2013-06-29 01:17:00,
2013-06-28 21:20:00,68.0,56.9,29.60,NE,42,4.7,4.7,68,0.00,,,0.04,VWS V14.01,2013-06-29 01:20:00,
2013-06-28 21:22:00,67.6,57.3,29.60,ENE,68,3.4,3.9,69,0.00,,,0.04,VWS V14.01,2013-06-29 01:22:00,
2013-06-28 21:23:00,67.7,55.4,29.60,ENE,60,3.0,3.7,65,0.00,,,0.04,VWS V14.01,2013-06-29 01:23:00,
2013-06-28 21:25:00,67.8,57.0,29.60,ENE,65,4.2,4.5,68,0.00,,,0.04,VWS V14.01,2013-06-29 01:25:00,
2013-06-28 21:26:00,67.8,57.0,29.60,ENE,65,4.2,4.5,68,0.00,,,0.04,VWS V14.01,2013-06-29 01:26:00,
2013-06-28 21:28:00,67.5,57.0,29.61,NE,52,4.5,4.7,69,0.00,,,0.04,VWS V14.01,2013-06-29 01:28:00,
2013-06-28 21:31:00,67.4,57.3,29.61,ENE,58,5.1,5.1,70,0.00,,,0.04,VWS V14.01,2013-06-29 01:31:00,
2013-06-28 21:32:00,67.1,57.4,29.60,ENE,57,3.2,3.9,71,0.00,,,0.04,VWS V14.01,2013-06-29 01:32:00,
2013-06-28 21:33:00,67.1,57.5,29.60,ENE,64,3.9,3.9,71,0.00,,,0.04,VWS V14.01,2013-06-29 01:33:00,
2013-06-28 21:34:00,67.1,57.5,29.59,ENE,60,4.5,4.5,71,0.00,,,0.04,VWS V14.01,2013-06-29 01:34:00,
2013-06-28 21:36:00,67.0,57.5,29.59,NE,49,3.9,3.9,72,0.00,,,0.04,VWS V14.01,2013-06-29 01:36:00,
2013-06-28 21:39:00,67.0,57.5,29.59,ENE,59,3.4,3.4,72,0.00,,,0.04,VWS V14.01,2013-06-29 01:39:00,
2013-06-28 21:42:00,66.7,57.7,29.61,NE,46,3.0,3.2,73,0.00,,,0.04,VWS V14.01,2013-06-29 01:42:00,
2013-06-28 21:44:00,66.2,57.8,29.60,ENE,63,0.0,2.7,74,0.00,,,0.04,VWS V14.01,2013-06-29 01:44:00,
2013-06-28 21:45:00,66.5,57.8,29.60,ENE,63,1.3,1.3,74,0.00,,,0.04,VWS V14.01,2013-06-29 01:45:00,
2013-06-28 21:47:00,66.5,57.2,29.59,ENE,71,3.5,3.5,72,0.00,,,0.04,VWS V14.01,2013-06-29 01:47:00,
2013-06-28 21:49:00,66.3,57.3,29.59,NE,54,2.0,2.0,73,0.00,,,0.04,VWS V14.01,2013-06-29 01:49:00,
2013-06-28 21:50:00,66.3,57.3,29.59,NE,54,2.0,2.0,73,0.00,,,0.04,VWS V14.01,2013-06-29 01:50:00,
2013-06-28 21:53:00,66.1,57.6,29.60,ENE,61,2.2,2.7,74,0.00,,,0.04,VWS V14.01,2013-06-29 01:53:00,
2013-06-28 21:54:00,65.9,57.7,29.60,NE,46,1.3,2.2,75,0.00,,,0.04,VWS V14.01,2013-06-29 01:54:00,
2013-06-28 21:56:00,65.8,57.8,29.60,NE,56,2.2,2.2,76,0.00,,,0.04,VWS V14.01,2013-06-29 01:56:00,
2013-06-28 21:58:00,65.8,58.0,29.60,NE,51,2.3,2.8,76,0.00,,,0.04,VWS V14.01,2013-06-29 01:58:00,
2013-06-28 21:59:00,66.0,57.9,29.60,NE,53,3.0,3.0,75,0.00,,,0.04,VWS V14.01,2013-06-29 01:59:00,
2013-06-28 22:01:00,65.7,57.6,29.61,NE,53,0.0,2.7,75,0.00,,,0.04,VWS V14.01,2013-06-29 02:01:00,
2013-06-28 22:02:00,65.7,57.6,29.61,NE,53,0.0,2.7,75,0.00,,,0.04,VWS V14.01,2013-06-29 02:02:00,
2013-06-28 22:05:00,65.7,57.7,29.60,ENE,57,2.3,2.3,75,0.00,,,0.04,VWS V14.01,2013-06-29 02:05:00,
2013-06-28 22:07:00,65.3,57.8,29.60,ENE,73,2.0,3.2,77,0.00,,,0.04,VWS V14.01,2013-06-29 02:07:00,
2013-06-28 22:08:00,65.4,57.6,29.59,ENE,64,3.0,3.2,76,0.00,,,0.04,VWS V14.01,2013-06-29 02:08:00,
2013-06-28 22:10:00,65.0,58.0,29.60,ENE,78,2.5,3.2,78,0.00,,,0.04,VWS V14.01,2013-06-29 02:10:00,
2013-06-28 22:11:00,65.3,58.5,29.62,ENE,78,2.2,3.2,79,0.00,,,0.04,VWS V14.01,2013-06-29 02:11:00,
2013-06-28 22:13:00,65.2,58.7,29.60,ENE,70,3.2,3.2,79,0.00,,,0.04,VWS V14.01,2013-06-29 02:13:00,
2013-06-28 22:14:00,65.2,58.7,29.60,ENE,70,3.2,3.2,79,0.00,,,0.04,VWS V14.01,2013-06-29 02:14:00,
2013-06-28 22:15:00,65.4,58.2,29.59,ENE,70,3.0,3.2,77,0.00,,,0.04,VWS V14.01,2013-06-29 02:15:00,
2013-06-28 22:16:00,65.2,57.6,29.60,ENE,70,2.0,3.2,77,0.00,,,0.04,VWS V14.01,2013-06-29 02:16:00,
2013-06-28 22:18:00,65.3,57.0,29.60,ENE,60,1.5,3.2,74,0.00,,,0.04,VWS V14.01,2013-06-29 02:18:00,
2013-06-28 22:21:00,65.1,57.3,29.62,ENE,60,0.0,3.2,76,0.00,,,0.04,VWS V14.01,2013-06-29 02:21:00,
2013-06-28 22:22:00,65.2,57.5,29.60,ENE,60,0.0,3.2,76,0.00,,,0.04,VWS V14.01,2013-06-29 02:22:00,
2013-06-28 22:24:00,65.0,57.5,29.60,ENE,60,0.0,3.2,77,0.00,,,0.04,VWS V14.01,2013-06-29 02:24:00,
2013-06-28 22:25:00,64.8,57.5,29.60,ENE,60,0.0,3.2,77,0.00,,,0.04,VWS V14.01,2013-06-29 02:25:00,
2013-06-28 22:26:00,64.8,57.8,29.60,ENE,60,0.0,3.2,78,0.00,,,0.04,VWS V14.01,2013-06-29 02:26:00,
2013-06-28 22:28:00,64.2,57.8,29.60,ENE,60,0.0,3.2,80,0.00,,,0.04,VWS V14.01,2013-06-29 02:28:00,
2013-06-28 22:29:00,64.0,57.5,29.59,ENE,60,0.0,3.2,79,0.00,,,0.04,VWS V14.01,2013-06-29 02:29:00,
2013-06-28 22:30:00,64.0,57.7,29.60,ENE,60,0.0,3.2,80,0.00,,,0.04,VWS V14.01,2013-06-29 02:30:00,
2013-06-28 22:31:00,64.0,58.0,29.61,ENE,60,0.0,3.2,81,0.00,,,0.04,VWS V14.01,2013-06-29 02:31:00,
2013-06-28 22:32:00,63.6,58.1,29.61,ENE,60,0.0,3.2,82,0.00,,,0.04,VWS V14.01,2013-06-29 02:32:00,
2013-06-28 22:34:00,62.9,58.0,29.60,ENE,60,0.0,3.2,84,0.00,,,0.04,VWS V14.01,2013-06-29 02:34:00,
2013-06-28 22:35:00,62.8,58.0,29.61,ENE,60,0.0,3.2,85,0.00,,,0.04,VWS V14.01,2013-06-29 02:35:00,
2013-06-28 22:36:00,62.7,58.5,29.61,WNW,284,0.0,3.2,86,0.00,,,0.04,VWS V14.01,2013-06-29 02:36:00,
2013-06-28 22:38:00,62.8,59.0,29.60,WNW,284,0.0,3.2,87,0.00,,,0.04,VWS V14.01,2013-06-29 02:38:00,
2013-06-28 22:41:00,63.3,59.8,29.60,NW,321,2.3,3.2,88,0.00,,,0.04,VWS V14.01,2013-06-29 02:41:00,
2013-06-28 22:43:00,63.3,59.6,29.61,NW,321,2.2,3.2,88,0.00,,,0.04,VWS V14.01,2013-06-29 02:43:00,
2013-06-28 22:44:00,62.8,59.2,29.61,NW,321,2.2,3.2,88,0.00,,,0.04,VWS V14.01,2013-06-29 02:44:00,
2013-06-28 22:47:00,62.7,59.9,29.61,NW,309,0.0,3.2,90,0.00,,,0.04,VWS V14.01,2013-06-29 02:47:00,
2013-06-28 22:48:00,62.7,59.9,29.61,NW,309,0.0,3.2,90,0.00,,,0.04,VWS V14.01,2013-06-29 02:48:00,
2013-06-28 22:49:00,62.9,60.2,29.62,NW,309,1.8,3.2,91,0.00,,,0.04,VWS V14.01,2013-06-29 02:49:00,
2013-06-28 22:50:00,63.0,60.4,29.61,NW,318,2.5,3.2,91,0.00,,,0.04,VWS V14.01,2013-06-29 02:50:00,
2013-06-28 22:53:00,63.1,60.5,29.63,NW,318,2.0,3.2,91,0.00,,,0.04,VWS V14.01,2013-06-29 02:53:00,
2013-06-28 22:54:00,63.2,60.6,29.61,NW,318,1.6,3.2,91,0.00,,,0.04,VWS V14.01,2013-06-29 02:54:00,
2013-06-28 22:55:00,63.0,60.5,29.61,NW,318,0.0,3.2,91,0.00,,,0.04,VWS V14.01,2013-06-29 02:55:00,
2013-06-28 22:56:00,63.0,60.5,29.61,NW,318,0.0,3.2,91,0.00,,,0.04,VWS V14.01,2013-06-29 02:56:00,
2013-06-28 22:57:00,63.2,60.6,29.61,NW,318,0.0,3.2,91,0.00,,,0.04,VWS V14.01,2013-06-29 02:57:00,
2013-06-28 22:59:00,63.1,60.0,29.61,NW,318,0.0,3.2,89,0.00,,,0.04,VWS V14.01,2013-06-29 02:59:00,
2013-06-28 23:00:00,63.1,60.0,29.61,NW,318,0.0,3.2,89,0.00,,,0.04,VWS V14.01,2013-06-29 03:00:00,
2013-06-28 23:02:00,63.2,60.8,29.62,NW,318,0.0,3.2,92,0.00,,,0.04,VWS V14.01,2013-06-29 03:02:00,
2013-06-28 23:03:00,63.2,60.8,29.61,NW,318,0.0,3.2,92,0.00,,,0.04,VWS V14.01,2013-06-29 03:03:00,
2013-06-28 23:05:00,63.2,60.7,29.61,NW,318,0.0,3.2,92,0.00,,,0.04,VWS V14.01,2013-06-29 03:05:00,
2013-06-28 23:06:00,63.2,60.0,29.61,NW,318,0.0,3.2,89,0.00,,,0.04,VWS V14.01,2013-06-29 03:06:00,
2013-06-28 23:08:00,63.3,60.7,29.61,NW,318,0.0,0.0,91,0.00,,,0.04,VWS V14.01,2013-06-29 03:08:00,
2013-06-28 23:09:00,63.2,60.4,29.61,NW,318,0.0,1.1,91,0.00,,,0.04,VWS V14.01,2013-06-29 03:09:00,
2013-06-28 23:11:00,63.1,60.4,29.61,NW,318,0.0,0.0,91,0.00,,,0.04,VWS V14.01,2013-06-29 03:11:00,
2013-06-28 23:14:00,62.9,60.5,29.61,NW,318,0.0,0.0,92,0.00,,,0.04,VWS V14.01,2013-06-29 03:14:00,
2013-06-28 23:15:00,62.7,60.5,29.60,NW,318,0.0,0.0,92,0.00,,,0.04,VWS V14.01,2013-06-29 03:15:00,
2013-06-28 23:17:00,62.6,60.5,29.61,NW,318,0.0,0.0,93,0.00,,,0.04,VWS V14.01,2013-06-29 03:17:00,
2013-06-28 23:19:00,62.8,60.7,29.60,NW,318,0.0,0.0,93,0.00,,,0.04,VWS V14.01,2013-06-29 03:19:00,
2013-06-28 23:20:00,62.8,60.8,29.60,NW,318,0.0,0.0,93,0.00,,,0.04,VWS V14.01,2013-06-29 03:20:00,
2013-06-28 23:21:00,62.7,60.8,29.60,NW,318,0.0,0.0,93,0.00,,,0.04,VWS V14.01,2013-06-29 03:21:00,
2013-06-28 23:23:00,62.4,60.6,29.61,NW,318,1.8,2.2,94,0.00,,,0.04,VWS V14.01,2013-06-29 03:23:00,
2013-06-28 23:24:00,62.4,60.7,29.60,NW,318,0.0,1.8,94,0.00,,,0.04,VWS V14.01,2013-06-29 03:24:00,
2013-06-28 23:26:00,62.3,60.8,29.60,NW,318,0.0,0.0,95,0.00,,,0.04,VWS V14.01,2013-06-29 03:26:00,
2013-06-28 23:27:00,62.3,60.8,29.59,NW,318,0.0,0.0,95,0.00,,,0.04,VWS V14.01,2013-06-29 03:27:00,
2013-06-28 23:28:00,62.4,61.0,29.61,NW,318,0.0,0.0,95,0.00,,,0.04,VWS V14.01,2013-06-29 03:28:00,
2013-06-28 23:30:00,62.5,61.0,29.60,NW,318,0.0,0.0,95,0.00,,,0.04,VWS V14.01,2013-06-29 03:30:00,
2013-06-28 23:31:00,62.2,60.7,29.60,West,279,0.0,0.0,95,0.00,,,0.04,VWS V14.01,2013-06-29 03:31:00,
2013-06-28 23:32:00,62.8,61.4,29.60,West,280,0.0,0.0,95,0.00,,,0.04,VWS V14.01,2013-06-29 03:32:00,
2013-06-28 23:34:00,62.3,60.9,29.61,WSW,247,2.0,2.0,95,0.00,,,0.04,VWS V14.01,2013-06-29 03:34:00,
2013-06-28 23:35:00,62.3,60.9,29.60,WSW,247,2.0,2.0,95,0.00,,,0.04,VWS V14.01,2013-06-29 03:35:00,
2013-06-28 23:37:00,62.5,61.1,29.60,NW,319,2.2,2.2,95,0.00,,,0.04,VWS V14.01,2013-06-29 03:37:00,
2013-06-28 23:39:00,62.7,61.5,29.63,NW,315,0.0,0.0,96,0.00,,,0.04,VWS V14.01,2013-06-29 03:39:00,
2013-06-28 23:41:00,62.2,60.8,29.61,SW,232,0.0,0.0,95,0.00,,,0.04,VWS V14.01,2013-06-29 03:41:00,
2013-06-28 23:42:00,62.2,60.7,29.60,SW,232,0.0,0.0,95,0.00,,,0.04,VWS V14.01,2013-06-29 03:42:00,
2013-06-28 23:43:00,62.2,60.7,29.59,NW,319,2.2,2.2,95,0.00,,,0.04,VWS V14.01,2013-06-29 03:43:00,
2013-06-28 23:44:00,62.3,60.9,29.59,NW,319,0.0,0.0,95,0.00,,,0.04,VWS V14.01,2013-06-29 03:44:00,
2013-06-28 23:46:00,62.2,60.8,29.59,NW,311,0.0,0.0,95,0.00,,,0.04,VWS V14.01,2013-06-29 03:46:00,
2013-06-28 23:47:00,62.3,60.8,29.59,NW,311,0.0,0.0,95,0.00,,,0.04,VWS V14.01,2013-06-29 03:47:00,
2013-06-28 23:50:00,62.2,60.9,29.60,NNW,331,0.0,0.0,95,0.00,,,0.04,VWS V14.01,2013-06-29 03:50:00,
2013-06-28 23:52:00,62.5,60.0,29.60,NNW,331,0.0,0.0,92,0.00,,,0.04,VWS V14.01,2013-06-29 03:52:00,
2013-06-28 23:54:00,62.1,60.9,29.60,NNW,331,0.0,0.0,96,0.00,,,0.04,VWS V14.01,2013-06-29 03:54:00,
2013-06-28 23:57:00,62.3,61.1,29.60,NNW,331,0.0,0.0,96,0.00,,,0.04,VWS V14.01,2013-06-29 03:57:00,
2013-06-28 23:59:00,62.2,61.1,29.60,NNW,331,2.2,2.2,96,0.00,,,0.00,VWS V14.01,2013-06-29 03:59:00,